<?xml version="1.0" encoding="UTF-8" standalone="yes"?>
<gpx
 version="1.1"
 creator="Global Mapper - http://www.globalmapper.com"
 xmlns:xsi="http://www.w3.org/2001/XMLSchema-instance"
 xmlns="http://www.topografix.com/GPX/1/1"
 xsi:schemaLocation="http://www.topografix.com/GPX/1/1 http://www.topografix.com/GPX/1/1/gpx.xsd">
 <metadata>
 </metadata>
<trk>
 <name>Afternoon Run</name>
 <desc>Tracklog</desc>
 <trkseg>
  <trkpt lat="46.776992" lon="23.555025">
   <ele>384.4</ele>
   <time>2021-08-17T10:02:26Z</time>
  </trkpt>
  <trkpt lat="46.776989" lon="23.555003">
   <ele>384.5</ele>
   <time>2021-08-17T10:02:27Z</time>
  </trkpt>
  <trkpt lat="46.777034" lon="23.555040">
   <ele>384.7</ele>
   <time>2021-08-17T10:02:35Z</time>
  </trkpt>
  <trkpt lat="46.777037" lon="23.555045">
   <ele>384.7</ele>
   <time>2021-08-17T10:02:36Z</time>
  </trkpt>
  <trkpt lat="46.777125" lon="23.554903">
   <ele>385.2</ele>
   <time>2021-08-17T10:03:02Z</time>
  </trkpt>
  <trkpt lat="46.777127" lon="23.554870">
   <ele>385.3</ele>
   <time>2021-08-17T10:03:03Z</time>
  </trkpt>
  <trkpt lat="46.777151" lon="23.554656">
   <ele>385.9</ele>
   <time>2021-08-17T10:03:09Z</time>
  </trkpt>
  <trkpt lat="46.777161" lon="23.554582">
   <ele>386.1</ele>
   <time>2021-08-17T10:03:11Z</time>
  </trkpt>
  <trkpt lat="46.777180" lon="23.554511">
   <ele>386.3</ele>
   <time>2021-08-17T10:03:13Z</time>
  </trkpt>
  <trkpt lat="46.777187" lon="23.554474">
   <ele>386.4</ele>
   <time>2021-08-17T10:03:14Z</time>
  </trkpt>
  <trkpt lat="46.777210" lon="23.554321">
   <ele>386.8</ele>
   <time>2021-08-17T10:03:18Z</time>
  </trkpt>
  <trkpt lat="46.777219" lon="23.554178">
   <ele>387.2</ele>
   <time>2021-08-17T10:03:22Z</time>
  </trkpt>
  <trkpt lat="46.777213" lon="23.554032">
   <ele>387.6</ele>
   <time>2021-08-17T10:03:26Z</time>
  </trkpt>
  <trkpt lat="46.777225" lon="23.553930">
   <ele>387.8</ele>
   <time>2021-08-17T10:03:29Z</time>
  </trkpt>
  <trkpt lat="46.777239" lon="23.553866">
   <ele>388</ele>
   <time>2021-08-17T10:03:31Z</time>
  </trkpt>
  <trkpt lat="46.777251" lon="23.553801">
   <ele>388.2</ele>
   <time>2021-08-17T10:03:33Z</time>
  </trkpt>
  <trkpt lat="46.777257" lon="23.553766">
   <ele>388.4</ele>
   <time>2021-08-17T10:03:34Z</time>
  </trkpt>
  <trkpt lat="46.777271" lon="23.553693">
   <ele>388.6</ele>
   <time>2021-08-17T10:03:36Z</time>
  </trkpt>
  <trkpt lat="46.777294" lon="23.553626">
   <ele>388.9</ele>
   <time>2021-08-17T10:03:38Z</time>
  </trkpt>
  <trkpt lat="46.777309" lon="23.553559">
   <ele>389.2</ele>
   <time>2021-08-17T10:03:40Z</time>
  </trkpt>
  <trkpt lat="46.777314" lon="23.553527">
   <ele>389.4</ele>
   <time>2021-08-17T10:03:41Z</time>
  </trkpt>
  <trkpt lat="46.777318" lon="23.553466">
   <ele>389.7</ele>
   <time>2021-08-17T10:03:43Z</time>
  </trkpt>
  <trkpt lat="46.777305" lon="23.553384">
   <ele>390.1</ele>
   <time>2021-08-17T10:03:46Z</time>
  </trkpt>
  <trkpt lat="46.777288" lon="23.553308">
   <ele>390.6</ele>
   <time>2021-08-17T10:03:49Z</time>
  </trkpt>
  <trkpt lat="46.777272" lon="23.553198">
   <ele>391.2</ele>
   <time>2021-08-17T10:03:54Z</time>
  </trkpt>
  <trkpt lat="46.777259" lon="23.553135">
   <ele>391.6</ele>
   <time>2021-08-17T10:03:57Z</time>
  </trkpt>
  <trkpt lat="46.777261" lon="23.553048">
   <ele>392.1</ele>
   <time>2021-08-17T10:04:01Z</time>
  </trkpt>
  <trkpt lat="46.777268" lon="23.552974">
   <ele>392.5</ele>
   <time>2021-08-17T10:04:04Z</time>
  </trkpt>
  <trkpt lat="46.777282" lon="23.552871">
   <ele>392.9</ele>
   <time>2021-08-17T10:04:08Z</time>
  </trkpt>
  <trkpt lat="46.777276" lon="23.552818">
   <ele>393.2</ele>
   <time>2021-08-17T10:04:10Z</time>
  </trkpt>
  <trkpt lat="46.777266" lon="23.552766">
   <ele>393.4</ele>
   <time>2021-08-17T10:04:12Z</time>
  </trkpt>
  <trkpt lat="46.777255" lon="23.552713">
   <ele>393.6</ele>
   <time>2021-08-17T10:04:14Z</time>
  </trkpt>
  <trkpt lat="46.777252" lon="23.552656">
   <ele>393.9</ele>
   <time>2021-08-17T10:04:16Z</time>
  </trkpt>
  <trkpt lat="46.777258" lon="23.552575">
   <ele>394.3</ele>
   <time>2021-08-17T10:04:19Z</time>
  </trkpt>
  <trkpt lat="46.777247" lon="23.552476">
   <ele>394.8</ele>
   <time>2021-08-17T10:04:23Z</time>
  </trkpt>
  <trkpt lat="46.777239" lon="23.552456">
   <ele>394.9</ele>
   <time>2021-08-17T10:04:24Z</time>
  </trkpt>
  <trkpt lat="46.777228" lon="23.552411">
   <ele>395.1</ele>
   <time>2021-08-17T10:04:26Z</time>
  </trkpt>
  <trkpt lat="46.777219" lon="23.552363">
   <ele>395.4</ele>
   <time>2021-08-17T10:04:28Z</time>
  </trkpt>
  <trkpt lat="46.777212" lon="23.552286">
   <ele>395.8</ele>
   <time>2021-08-17T10:04:31Z</time>
  </trkpt>
  <trkpt lat="46.777205" lon="23.552237">
   <ele>396</ele>
   <time>2021-08-17T10:04:33Z</time>
  </trkpt>
  <trkpt lat="46.777190" lon="23.552136">
   <ele>396.5</ele>
   <time>2021-08-17T10:04:37Z</time>
  </trkpt>
  <trkpt lat="46.777166" lon="23.552027">
   <ele>397</ele>
   <time>2021-08-17T10:04:41Z</time>
  </trkpt>
  <trkpt lat="46.777160" lon="23.552001">
   <ele>397.2</ele>
   <time>2021-08-17T10:04:42Z</time>
  </trkpt>
  <trkpt lat="46.777148" lon="23.551922">
   <ele>397.5</ele>
   <time>2021-08-17T10:04:45Z</time>
  </trkpt>
  <trkpt lat="46.777149" lon="23.551835">
   <ele>397.9</ele>
   <time>2021-08-17T10:04:48Z</time>
  </trkpt>
  <trkpt lat="46.777155" lon="23.551804">
   <ele>398</ele>
   <time>2021-08-17T10:04:49Z</time>
  </trkpt>
  <trkpt lat="46.777158" lon="23.551776">
   <ele>398.1</ele>
   <time>2021-08-17T10:04:50Z</time>
  </trkpt>
  <trkpt lat="46.777160" lon="23.551726">
   <ele>398.3</ele>
   <time>2021-08-17T10:04:52Z</time>
  </trkpt>
  <trkpt lat="46.777148" lon="23.551675">
   <ele>398.5</ele>
   <time>2021-08-17T10:04:54Z</time>
  </trkpt>
  <trkpt lat="46.777139" lon="23.551652">
   <ele>398.7</ele>
   <time>2021-08-17T10:04:55Z</time>
  </trkpt>
  <trkpt lat="46.777133" lon="23.551628">
   <ele>398.8</ele>
   <time>2021-08-17T10:04:56Z</time>
  </trkpt>
  <trkpt lat="46.777124" lon="23.551478">
   <ele>399.5</ele>
   <time>2021-08-17T10:05:02Z</time>
  </trkpt>
  <trkpt lat="46.777117" lon="23.551453">
   <ele>399.6</ele>
   <time>2021-08-17T10:05:03Z</time>
  </trkpt>
  <trkpt lat="46.777104" lon="23.551427">
   <ele>399.7</ele>
   <time>2021-08-17T10:05:04Z</time>
  </trkpt>
  <trkpt lat="46.777078" lon="23.551318">
   <ele>400.3</ele>
   <time>2021-08-17T10:05:09Z</time>
  </trkpt>
  <trkpt lat="46.777073" lon="23.551257">
   <ele>400.6</ele>
   <time>2021-08-17T10:05:12Z</time>
  </trkpt>
  <trkpt lat="46.777027" lon="23.551167">
   <ele>401.2</ele>
   <time>2021-08-17T10:05:17Z</time>
  </trkpt>
  <trkpt lat="46.776990" lon="23.551106">
   <ele>401.7</ele>
   <time>2021-08-17T10:05:20Z</time>
  </trkpt>
  <trkpt lat="46.776965" lon="23.551041">
   <ele>402.1</ele>
   <time>2021-08-17T10:05:23Z</time>
  </trkpt>
  <trkpt lat="46.776929" lon="23.550940">
   <ele>402.7</ele>
   <time>2021-08-17T10:05:28Z</time>
  </trkpt>
  <trkpt lat="46.776907" lon="23.550908">
   <ele>402.9</ele>
   <time>2021-08-17T10:05:30Z</time>
  </trkpt>
  <trkpt lat="46.776888" lon="23.550870">
   <ele>403.2</ele>
   <time>2021-08-17T10:05:32Z</time>
  </trkpt>
  <trkpt lat="46.776877" lon="23.550804">
   <ele>403.5</ele>
   <time>2021-08-17T10:05:35Z</time>
  </trkpt>
  <trkpt lat="46.776873" lon="23.550750">
   <ele>403.8</ele>
   <time>2021-08-17T10:05:37Z</time>
  </trkpt>
  <trkpt lat="46.776885" lon="23.550646">
   <ele>404.3</ele>
   <time>2021-08-17T10:05:41Z</time>
  </trkpt>
  <trkpt lat="46.776902" lon="23.550572">
   <ele>404.7</ele>
   <time>2021-08-17T10:05:44Z</time>
  </trkpt>
  <trkpt lat="46.776905" lon="23.550527">
   <ele>404.9</ele>
   <time>2021-08-17T10:05:46Z</time>
  </trkpt>
  <trkpt lat="46.776915" lon="23.550473">
   <ele>405.2</ele>
   <time>2021-08-17T10:05:48Z</time>
  </trkpt>
  <trkpt lat="46.776929" lon="23.550420">
   <ele>405.5</ele>
   <time>2021-08-17T10:05:50Z</time>
  </trkpt>
  <trkpt lat="46.776932" lon="23.550392">
   <ele>405.6</ele>
   <time>2021-08-17T10:05:51Z</time>
  </trkpt>
  <trkpt lat="46.776934" lon="23.550363">
   <ele>405.8</ele>
   <time>2021-08-17T10:05:52Z</time>
  </trkpt>
  <trkpt lat="46.776934" lon="23.550197">
   <ele>406.7</ele>
   <time>2021-08-17T10:05:58Z</time>
  </trkpt>
  <trkpt lat="46.776932" lon="23.550175">
   <ele>406.8</ele>
   <time>2021-08-17T10:05:59Z</time>
  </trkpt>
  <trkpt lat="46.776913" lon="23.550079">
   <ele>407.4</ele>
   <time>2021-08-17T10:06:03Z</time>
  </trkpt>
  <trkpt lat="46.776905" lon="23.550029">
   <ele>407.7</ele>
   <time>2021-08-17T10:06:05Z</time>
  </trkpt>
  <trkpt lat="46.776906" lon="23.549962">
   <ele>408.1</ele>
   <time>2021-08-17T10:06:08Z</time>
  </trkpt>
  <trkpt lat="46.776905" lon="23.549946">
   <ele>408.2</ele>
   <time>2021-08-17T10:06:09Z</time>
  </trkpt>
  <trkpt lat="46.776895" lon="23.549888">
   <ele>408.6</ele>
   <time>2021-08-17T10:06:12Z</time>
  </trkpt>
  <trkpt lat="46.776880" lon="23.549764">
   <ele>409.5</ele>
   <time>2021-08-17T10:06:18Z</time>
  </trkpt>
  <trkpt lat="46.776879" lon="23.549745">
   <ele>409.6</ele>
   <time>2021-08-17T10:06:19Z</time>
  </trkpt>
  <trkpt lat="46.776876" lon="23.549723">
   <ele>409.8</ele>
   <time>2021-08-17T10:06:20Z</time>
  </trkpt>
  <trkpt lat="46.776872" lon="23.549703">
   <ele>409.9</ele>
   <time>2021-08-17T10:06:21Z</time>
  </trkpt>
  <trkpt lat="46.776864" lon="23.549685">
   <ele>410.1</ele>
   <time>2021-08-17T10:06:22Z</time>
  </trkpt>
  <trkpt lat="46.776857" lon="23.549663">
   <ele>410.2</ele>
   <time>2021-08-17T10:06:23Z</time>
  </trkpt>
  <trkpt lat="46.776840" lon="23.549618">
   <ele>410.6</ele>
   <time>2021-08-17T10:06:25Z</time>
  </trkpt>
  <trkpt lat="46.776832" lon="23.549596">
   <ele>410.8</ele>
   <time>2021-08-17T10:06:26Z</time>
  </trkpt>
  <trkpt lat="46.776798" lon="23.549534">
   <ele>411.3</ele>
   <time>2021-08-17T10:06:29Z</time>
  </trkpt>
  <trkpt lat="46.776764" lon="23.549439">
   <ele>412</ele>
   <time>2021-08-17T10:06:33Z</time>
  </trkpt>
  <trkpt lat="46.776752" lon="23.549414">
   <ele>412.2</ele>
   <time>2021-08-17T10:06:34Z</time>
  </trkpt>
  <trkpt lat="46.776739" lon="23.549391">
   <ele>412.4</ele>
   <time>2021-08-17T10:06:35Z</time>
  </trkpt>
  <trkpt lat="46.776724" lon="23.549369">
   <ele>412.6</ele>
   <time>2021-08-17T10:06:36Z</time>
  </trkpt>
  <trkpt lat="46.776688" lon="23.549306">
   <ele>413.2</ele>
   <time>2021-08-17T10:06:39Z</time>
  </trkpt>
  <trkpt lat="46.776664" lon="23.549260">
   <ele>413.6</ele>
   <time>2021-08-17T10:06:41Z</time>
  </trkpt>
  <trkpt lat="46.776612" lon="23.549161">
   <ele>414.4</ele>
   <time>2021-08-17T10:06:46Z</time>
  </trkpt>
  <trkpt lat="46.776589" lon="23.549127">
   <ele>414.7</ele>
   <time>2021-08-17T10:06:48Z</time>
  </trkpt>
  <trkpt lat="46.776578" lon="23.549110">
   <ele>414.8</ele>
   <time>2021-08-17T10:06:49Z</time>
  </trkpt>
  <trkpt lat="46.776543" lon="23.549033">
   <ele>415.4</ele>
   <time>2021-08-17T10:06:53Z</time>
  </trkpt>
  <trkpt lat="46.776542" lon="23.548995">
   <ele>415.6</ele>
   <time>2021-08-17T10:06:55Z</time>
  </trkpt>
  <trkpt lat="46.776530" lon="23.548937">
   <ele>416</ele>
   <time>2021-08-17T10:07:00Z</time>
  </trkpt>
  <trkpt lat="46.776528" lon="23.548920">
   <ele>416.1</ele>
   <time>2021-08-17T10:07:01Z</time>
  </trkpt>
  <trkpt lat="46.776525" lon="23.548866">
   <ele>416.4</ele>
   <time>2021-08-17T10:07:04Z</time>
  </trkpt>
  <trkpt lat="46.776493" lon="23.548777">
   <ele>417</ele>
   <time>2021-08-17T10:07:09Z</time>
  </trkpt>
  <trkpt lat="46.776479" lon="23.548710">
   <ele>417.4</ele>
   <time>2021-08-17T10:07:13Z</time>
  </trkpt>
  <trkpt lat="46.776476" lon="23.548693">
   <ele>417.5</ele>
   <time>2021-08-17T10:07:14Z</time>
  </trkpt>
  <trkpt lat="46.776474" lon="23.548658">
   <ele>417.8</ele>
   <time>2021-08-17T10:07:16Z</time>
  </trkpt>
  <trkpt lat="46.776480" lon="23.548557">
   <ele>418.4</ele>
   <time>2021-08-17T10:07:21Z</time>
  </trkpt>
  <trkpt lat="46.776503" lon="23.548496">
   <ele>418.8</ele>
   <time>2021-08-17T10:07:24Z</time>
  </trkpt>
  <trkpt lat="46.776522" lon="23.548454">
   <ele>419.1</ele>
   <time>2021-08-17T10:07:26Z</time>
  </trkpt>
  <trkpt lat="46.776525" lon="23.548387">
   <ele>419.5</ele>
   <time>2021-08-17T10:07:30Z</time>
  </trkpt>
  <trkpt lat="46.776518" lon="23.548370">
   <ele>419.6</ele>
   <time>2021-08-17T10:07:31Z</time>
  </trkpt>
  <trkpt lat="46.776515" lon="23.548337">
   <ele>419.8</ele>
   <time>2021-08-17T10:07:33Z</time>
  </trkpt>
  <trkpt lat="46.776546" lon="23.548253">
   <ele>420.3</ele>
   <time>2021-08-17T10:07:37Z</time>
  </trkpt>
  <trkpt lat="46.776563" lon="23.548181">
   <ele>420.7</ele>
   <time>2021-08-17T10:07:41Z</time>
  </trkpt>
  <trkpt lat="46.776584" lon="23.548124">
   <ele>421.1</ele>
   <time>2021-08-17T10:07:44Z</time>
  </trkpt>
  <trkpt lat="46.776632" lon="23.548047">
   <ele>421.6</ele>
   <time>2021-08-17T10:07:50Z</time>
  </trkpt>
  <trkpt lat="46.776641" lon="23.548038">
   <ele>421.7</ele>
   <time>2021-08-17T10:07:51Z</time>
  </trkpt>
  <trkpt lat="46.776646" lon="23.548026">
   <ele>421.8</ele>
   <time>2021-08-17T10:07:52Z</time>
  </trkpt>
  <trkpt lat="46.776646" lon="23.548004">
   <ele>421.9</ele>
   <time>2021-08-17T10:07:54Z</time>
  </trkpt>
  <trkpt lat="46.776634" lon="23.548007">
   <ele>421.9</ele>
   <time>2021-08-17T10:07:56Z</time>
  </trkpt>
  <trkpt lat="46.776620" lon="23.548029">
   <ele>422.1</ele>
   <time>2021-08-17T10:07:58Z</time>
  </trkpt>
  <trkpt lat="46.776575" lon="23.548120">
   <ele>422.5</ele>
   <time>2021-08-17T10:08:04Z</time>
  </trkpt>
  <trkpt lat="46.776581" lon="23.548141">
   <ele>422.6</ele>
   <time>2021-08-17T10:08:07Z</time>
  </trkpt>
  <trkpt lat="46.776633" lon="23.548091">
   <ele>423</ele>
   <time>2021-08-17T10:08:10Z</time>
  </trkpt>
  <trkpt lat="46.776684" lon="23.547961">
   <ele>423.6</ele>
   <time>2021-08-17T10:08:16Z</time>
  </trkpt>
  <trkpt lat="46.776690" lon="23.547938">
   <ele>423.7</ele>
   <time>2021-08-17T10:08:17Z</time>
  </trkpt>
  <trkpt lat="46.776706" lon="23.547899">
   <ele>423.8</ele>
   <time>2021-08-17T10:08:19Z</time>
  </trkpt>
  <trkpt lat="46.776734" lon="23.547868">
   <ele>424</ele>
   <time>2021-08-17T10:08:21Z</time>
  </trkpt>
  <trkpt lat="46.776776" lon="23.547819">
   <ele>424.3</ele>
   <time>2021-08-17T10:08:24Z</time>
  </trkpt>
  <trkpt lat="46.776789" lon="23.547798">
   <ele>424.4</ele>
   <time>2021-08-17T10:08:25Z</time>
  </trkpt>
  <trkpt lat="46.776803" lon="23.547775">
   <ele>424.5</ele>
   <time>2021-08-17T10:08:26Z</time>
  </trkpt>
  <trkpt lat="46.776857" lon="23.547616">
   <ele>425.1</ele>
   <time>2021-08-17T10:08:32Z</time>
  </trkpt>
  <trkpt lat="46.776848" lon="23.547528">
   <ele>425.4</ele>
   <time>2021-08-17T10:08:35Z</time>
  </trkpt>
  <trkpt lat="46.776841" lon="23.547501">
   <ele>425.5</ele>
   <time>2021-08-17T10:08:36Z</time>
  </trkpt>
  <trkpt lat="46.776813" lon="23.547451">
   <ele>425.7</ele>
   <time>2021-08-17T10:08:38Z</time>
  </trkpt>
  <trkpt lat="46.776712" lon="23.547397">
   <ele>426.2</ele>
   <time>2021-08-17T10:08:43Z</time>
  </trkpt>
  <trkpt lat="46.776605" lon="23.547359">
   <ele>426.6</ele>
   <time>2021-08-17T10:08:48Z</time>
  </trkpt>
  <trkpt lat="46.776515" lon="23.547324">
   <ele>426.9</ele>
   <time>2021-08-17T10:08:52Z</time>
  </trkpt>
  <trkpt lat="46.776388" lon="23.547264">
   <ele>427.3</ele>
   <time>2021-08-17T10:08:58Z</time>
  </trkpt>
  <trkpt lat="46.776319" lon="23.547241">
   <ele>427.5</ele>
   <time>2021-08-17T10:09:01Z</time>
  </trkpt>
  <trkpt lat="46.776233" lon="23.547189">
   <ele>427.9</ele>
   <time>2021-08-17T10:09:05Z</time>
  </trkpt>
  <trkpt lat="46.776190" lon="23.547162">
   <ele>428.1</ele>
   <time>2021-08-17T10:09:07Z</time>
  </trkpt>
  <trkpt lat="46.776145" lon="23.547142">
   <ele>428.4</ele>
   <time>2021-08-17T10:09:09Z</time>
  </trkpt>
  <trkpt lat="46.776125" lon="23.547131">
   <ele>428.4</ele>
   <time>2021-08-17T10:09:10Z</time>
  </trkpt>
  <trkpt lat="46.776065" lon="23.547105">
   <ele>428.7</ele>
   <time>2021-08-17T10:09:13Z</time>
  </trkpt>
  <trkpt lat="46.776023" lon="23.547083">
   <ele>428.8</ele>
   <time>2021-08-17T10:09:15Z</time>
  </trkpt>
  <trkpt lat="46.775911" lon="23.547013">
   <ele>429</ele>
   <time>2021-08-17T10:09:21Z</time>
  </trkpt>
  <trkpt lat="46.775842" lon="23.546979">
   <ele>429.2</ele>
   <time>2021-08-17T10:09:24Z</time>
  </trkpt>
  <trkpt lat="46.775732" lon="23.546937">
   <ele>429.4</ele>
   <time>2021-08-17T10:09:29Z</time>
  </trkpt>
  <trkpt lat="46.775666" lon="23.546915">
   <ele>429.5</ele>
   <time>2021-08-17T10:09:32Z</time>
  </trkpt>
  <trkpt lat="46.775623" lon="23.546894">
   <ele>429.7</ele>
   <time>2021-08-17T10:09:34Z</time>
  </trkpt>
  <trkpt lat="46.775557" lon="23.546852">
   <ele>429.8</ele>
   <time>2021-08-17T10:09:37Z</time>
  </trkpt>
  <trkpt lat="46.775515" lon="23.546821">
   <ele>430</ele>
   <time>2021-08-17T10:09:39Z</time>
  </trkpt>
  <trkpt lat="46.775493" lon="23.546806">
   <ele>430</ele>
   <time>2021-08-17T10:09:40Z</time>
  </trkpt>
  <trkpt lat="46.775387" lon="23.546726">
   <ele>430.3</ele>
   <time>2021-08-17T10:09:45Z</time>
  </trkpt>
  <trkpt lat="46.775328" lon="23.546672">
   <ele>430.5</ele>
   <time>2021-08-17T10:09:48Z</time>
  </trkpt>
  <trkpt lat="46.775205" lon="23.546593">
   <ele>430.7</ele>
   <time>2021-08-17T10:09:54Z</time>
  </trkpt>
  <trkpt lat="46.775173" lon="23.546568">
   <ele>430.8</ele>
   <time>2021-08-17T10:09:56Z</time>
  </trkpt>
  <trkpt lat="46.775057" lon="23.546471">
   <ele>431.2</ele>
   <time>2021-08-17T10:10:02Z</time>
  </trkpt>
  <trkpt lat="46.775021" lon="23.546421">
   <ele>431.4</ele>
   <time>2021-08-17T10:10:04Z</time>
  </trkpt>
  <trkpt lat="46.774918" lon="23.546316">
   <ele>431.6</ele>
   <time>2021-08-17T10:10:09Z</time>
  </trkpt>
  <trkpt lat="46.774806" lon="23.546218">
   <ele>431.6</ele>
   <time>2021-08-17T10:10:14Z</time>
  </trkpt>
  <trkpt lat="46.774711" lon="23.546140">
   <ele>431.4</ele>
   <time>2021-08-17T10:10:18Z</time>
  </trkpt>
  <trkpt lat="46.774569" lon="23.546036">
   <ele>431.4</ele>
   <time>2021-08-17T10:10:24Z</time>
  </trkpt>
  <trkpt lat="46.774529" lon="23.546003">
   <ele>431.5</ele>
   <time>2021-08-17T10:10:26Z</time>
  </trkpt>
  <trkpt lat="46.774440" lon="23.545904">
   <ele>431.9</ele>
   <time>2021-08-17T10:10:32Z</time>
  </trkpt>
  <trkpt lat="46.774427" lon="23.545888">
   <ele>432</ele>
   <time>2021-08-17T10:10:33Z</time>
  </trkpt>
  <trkpt lat="46.774355" lon="23.545768">
   <ele>432.6</ele>
   <time>2021-08-17T10:10:39Z</time>
  </trkpt>
  <trkpt lat="46.774326" lon="23.545730">
   <ele>432.9</ele>
   <time>2021-08-17T10:10:41Z</time>
  </trkpt>
  <trkpt lat="46.774273" lon="23.545653">
   <ele>433.4</ele>
   <time>2021-08-17T10:10:45Z</time>
  </trkpt>
  <trkpt lat="46.774245" lon="23.545614">
   <ele>433.6</ele>
   <time>2021-08-17T10:10:47Z</time>
  </trkpt>
  <trkpt lat="46.774205" lon="23.545551">
   <ele>434</ele>
   <time>2021-08-17T10:10:50Z</time>
  </trkpt>
  <trkpt lat="46.774149" lon="23.545471">
   <ele>434.5</ele>
   <time>2021-08-17T10:10:54Z</time>
  </trkpt>
  <trkpt lat="46.774124" lon="23.545428">
   <ele>434.8</ele>
   <time>2021-08-17T10:10:56Z</time>
  </trkpt>
  <trkpt lat="46.774056" lon="23.545323">
   <ele>435.4</ele>
   <time>2021-08-17T10:11:01Z</time>
  </trkpt>
  <trkpt lat="46.774031" lon="23.545280">
   <ele>435.6</ele>
   <time>2021-08-17T10:11:03Z</time>
  </trkpt>
  <trkpt lat="46.774017" lon="23.545258">
   <ele>435.7</ele>
   <time>2021-08-17T10:11:04Z</time>
  </trkpt>
  <trkpt lat="46.773939" lon="23.545134">
   <ele>436</ele>
   <time>2021-08-17T10:11:10Z</time>
  </trkpt>
  <trkpt lat="46.773928" lon="23.545109">
   <ele>436</ele>
   <time>2021-08-17T10:11:11Z</time>
  </trkpt>
  <trkpt lat="46.773876" lon="23.544966">
   <ele>435.9</ele>
   <time>2021-08-17T10:11:17Z</time>
  </trkpt>
  <trkpt lat="46.773852" lon="23.544887">
   <ele>435.7</ele>
   <time>2021-08-17T10:11:20Z</time>
  </trkpt>
  <trkpt lat="46.773833" lon="23.544744">
   <ele>435.3</ele>
   <time>2021-08-17T10:11:24Z</time>
  </trkpt>
  <trkpt lat="46.773832" lon="23.544709">
   <ele>435.2</ele>
   <time>2021-08-17T10:11:25Z</time>
  </trkpt>
  <trkpt lat="46.773828" lon="23.544676">
   <ele>435.1</ele>
   <time>2021-08-17T10:11:26Z</time>
  </trkpt>
  <trkpt lat="46.773817" lon="23.544536">
   <ele>434.7</ele>
   <time>2021-08-17T10:11:30Z</time>
  </trkpt>
  <trkpt lat="46.773815" lon="23.544506">
   <ele>434.6</ele>
   <time>2021-08-17T10:11:31Z</time>
  </trkpt>
  <trkpt lat="46.773814" lon="23.544448">
   <ele>434.4</ele>
   <time>2021-08-17T10:11:33Z</time>
  </trkpt>
  <trkpt lat="46.773815" lon="23.544418">
   <ele>434.3</ele>
   <time>2021-08-17T10:11:34Z</time>
  </trkpt>
  <trkpt lat="46.773789" lon="23.544225">
   <ele>433.7</ele>
   <time>2021-08-17T10:11:40Z</time>
  </trkpt>
  <trkpt lat="46.773771" lon="23.544079">
   <ele>433.2</ele>
   <time>2021-08-17T10:11:44Z</time>
  </trkpt>
  <trkpt lat="46.773781" lon="23.543970">
   <ele>432.8</ele>
   <time>2021-08-17T10:11:47Z</time>
  </trkpt>
  <trkpt lat="46.773796" lon="23.543758">
   <ele>432.2</ele>
   <time>2021-08-17T10:11:53Z</time>
  </trkpt>
  <trkpt lat="46.773806" lon="23.543685">
   <ele>431.9</ele>
   <time>2021-08-17T10:11:55Z</time>
  </trkpt>
  <trkpt lat="46.773815" lon="23.543611">
   <ele>431.7</ele>
   <time>2021-08-17T10:11:57Z</time>
  </trkpt>
  <trkpt lat="46.773831" lon="23.543467">
   <ele>431.4</ele>
   <time>2021-08-17T10:12:01Z</time>
  </trkpt>
  <trkpt lat="46.773836" lon="23.543354">
   <ele>431.1</ele>
   <time>2021-08-17T10:12:04Z</time>
  </trkpt>
  <trkpt lat="46.773851" lon="23.543151">
   <ele>430.7</ele>
   <time>2021-08-17T10:12:10Z</time>
  </trkpt>
  <trkpt lat="46.773860" lon="23.543054">
   <ele>430.5</ele>
   <time>2021-08-17T10:12:13Z</time>
  </trkpt>
  <trkpt lat="46.773861" lon="23.543023">
   <ele>430.4</ele>
   <time>2021-08-17T10:12:14Z</time>
  </trkpt>
  <trkpt lat="46.773902" lon="23.542912">
   <ele>430.2</ele>
   <time>2021-08-17T10:12:18Z</time>
  </trkpt>
  <trkpt lat="46.773918" lon="23.542883">
   <ele>430.1</ele>
   <time>2021-08-17T10:12:19Z</time>
  </trkpt>
  <trkpt lat="46.773938" lon="23.542857">
   <ele>430</ele>
   <time>2021-08-17T10:12:20Z</time>
  </trkpt>
  <trkpt lat="46.773989" lon="23.542769">
   <ele>429.8</ele>
   <time>2021-08-17T10:12:23Z</time>
  </trkpt>
  <trkpt lat="46.774025" lon="23.542693">
   <ele>429.5</ele>
   <time>2021-08-17T10:12:25Z</time>
  </trkpt>
  <trkpt lat="46.774044" lon="23.542654">
   <ele>429.4</ele>
   <time>2021-08-17T10:12:26Z</time>
  </trkpt>
  <trkpt lat="46.774081" lon="23.542522">
   <ele>429</ele>
   <time>2021-08-17T10:12:29Z</time>
  </trkpt>
  <trkpt lat="46.774085" lon="23.542446">
   <ele>428.8</ele>
   <time>2021-08-17T10:12:31Z</time>
  </trkpt>
  <trkpt lat="46.774090" lon="23.542307">
   <ele>428.4</ele>
   <time>2021-08-17T10:12:35Z</time>
  </trkpt>
  <trkpt lat="46.774102" lon="23.542144">
   <ele>428.1</ele>
   <time>2021-08-17T10:12:40Z</time>
  </trkpt>
  <trkpt lat="46.774108" lon="23.542066">
   <ele>428</ele>
   <time>2021-08-17T10:12:43Z</time>
  </trkpt>
  <trkpt lat="46.774117" lon="23.542015">
   <ele>428</ele>
   <time>2021-08-17T10:12:45Z</time>
  </trkpt>
  <trkpt lat="46.774128" lon="23.541961">
   <ele>427.9</ele>
   <time>2021-08-17T10:12:47Z</time>
  </trkpt>
  <trkpt lat="46.774138" lon="23.541882">
   <ele>428</ele>
   <time>2021-08-17T10:12:50Z</time>
  </trkpt>
  <trkpt lat="46.774154" lon="23.541816">
   <ele>428.2</ele>
   <time>2021-08-17T10:12:53Z</time>
  </trkpt>
  <trkpt lat="46.774160" lon="23.541795">
   <ele>428.2</ele>
   <time>2021-08-17T10:12:54Z</time>
  </trkpt>
  <trkpt lat="46.774164" lon="23.541771">
   <ele>428.2</ele>
   <time>2021-08-17T10:12:55Z</time>
  </trkpt>
  <trkpt lat="46.774165" lon="23.541745">
   <ele>428.3</ele>
   <time>2021-08-17T10:12:56Z</time>
  </trkpt>
  <trkpt lat="46.774153" lon="23.541591">
   <ele>428.5</ele>
   <time>2021-08-17T10:13:01Z</time>
  </trkpt>
  <trkpt lat="46.774093" lon="23.541418">
   <ele>428.5</ele>
   <time>2021-08-17T10:13:07Z</time>
  </trkpt>
  <trkpt lat="46.774083" lon="23.541389">
   <ele>428.5</ele>
   <time>2021-08-17T10:13:08Z</time>
  </trkpt>
  <trkpt lat="46.774019" lon="23.541231">
   <ele>428.2</ele>
   <time>2021-08-17T10:13:14Z</time>
  </trkpt>
  <trkpt lat="46.774009" lon="23.541185">
   <ele>428.2</ele>
   <time>2021-08-17T10:13:16Z</time>
  </trkpt>
  <trkpt lat="46.773977" lon="23.541039">
   <ele>427.9</ele>
   <time>2021-08-17T10:13:21Z</time>
  </trkpt>
  <trkpt lat="46.773921" lon="23.540905">
   <ele>427.5</ele>
   <time>2021-08-17T10:13:25Z</time>
  </trkpt>
  <trkpt lat="46.773881" lon="23.540847">
   <ele>427.4</ele>
   <time>2021-08-17T10:13:27Z</time>
  </trkpt>
  <trkpt lat="46.773822" lon="23.540755">
   <ele>427</ele>
   <time>2021-08-17T10:13:30Z</time>
  </trkpt>
  <trkpt lat="46.773781" lon="23.540632">
   <ele>426.7</ele>
   <time>2021-08-17T10:13:33Z</time>
  </trkpt>
  <trkpt lat="46.773771" lon="23.540592">
   <ele>426.5</ele>
   <time>2021-08-17T10:13:34Z</time>
  </trkpt>
  <trkpt lat="46.773757" lon="23.540506">
   <ele>426.4</ele>
   <time>2021-08-17T10:13:36Z</time>
  </trkpt>
  <trkpt lat="46.773741" lon="23.540341">
   <ele>426.2</ele>
   <time>2021-08-17T10:13:40Z</time>
  </trkpt>
  <trkpt lat="46.773735" lon="23.540306">
   <ele>426.2</ele>
   <time>2021-08-17T10:13:41Z</time>
  </trkpt>
  <trkpt lat="46.773713" lon="23.540133">
   <ele>426.6</ele>
   <time>2021-08-17T10:13:46Z</time>
  </trkpt>
  <trkpt lat="46.773706" lon="23.540102">
   <ele>426.7</ele>
   <time>2021-08-17T10:13:47Z</time>
  </trkpt>
  <trkpt lat="46.773702" lon="23.540070">
   <ele>426.8</ele>
   <time>2021-08-17T10:13:48Z</time>
  </trkpt>
  <trkpt lat="46.773665" lon="23.539952">
   <ele>427.2</ele>
   <time>2021-08-17T10:13:54Z</time>
  </trkpt>
  <trkpt lat="46.773655" lon="23.539927">
   <ele>427.3</ele>
   <time>2021-08-17T10:13:55Z</time>
  </trkpt>
  <trkpt lat="46.773612" lon="23.539852">
   <ele>427.6</ele>
   <time>2021-08-17T10:13:58Z</time>
  </trkpt>
  <trkpt lat="46.773606" lon="23.539821">
   <ele>427.7</ele>
   <time>2021-08-17T10:13:59Z</time>
  </trkpt>
  <trkpt lat="46.773602" lon="23.539790">
   <ele>427.8</ele>
   <time>2021-08-17T10:14:00Z</time>
  </trkpt>
  <trkpt lat="46.773601" lon="23.539754">
   <ele>427.8</ele>
   <time>2021-08-17T10:14:01Z</time>
  </trkpt>
  <trkpt lat="46.773603" lon="23.539718">
   <ele>427.9</ele>
   <time>2021-08-17T10:14:02Z</time>
  </trkpt>
  <trkpt lat="46.773599" lon="23.539679">
   <ele>427.9</ele>
   <time>2021-08-17T10:14:03Z</time>
  </trkpt>
  <trkpt lat="46.773559" lon="23.539573">
   <ele>427.9</ele>
   <time>2021-08-17T10:14:07Z</time>
  </trkpt>
  <trkpt lat="46.773496" lon="23.539431">
   <ele>427.7</ele>
   <time>2021-08-17T10:14:13Z</time>
  </trkpt>
  <trkpt lat="46.773486" lon="23.539398">
   <ele>427.6</ele>
   <time>2021-08-17T10:14:14Z</time>
  </trkpt>
  <trkpt lat="46.773437" lon="23.539232">
   <ele>427.3</ele>
   <time>2021-08-17T10:14:20Z</time>
  </trkpt>
  <trkpt lat="46.773405" lon="23.539064">
   <ele>427.1</ele>
   <time>2021-08-17T10:14:26Z</time>
  </trkpt>
  <trkpt lat="46.773406" lon="23.539034">
   <ele>427.1</ele>
   <time>2021-08-17T10:14:27Z</time>
  </trkpt>
  <trkpt lat="46.773421" lon="23.538861">
   <ele>427.1</ele>
   <time>2021-08-17T10:14:33Z</time>
  </trkpt>
  <trkpt lat="46.773434" lon="23.538800">
   <ele>427.1</ele>
   <time>2021-08-17T10:14:35Z</time>
  </trkpt>
  <trkpt lat="46.773493" lon="23.538656">
   <ele>427.2</ele>
   <time>2021-08-17T10:14:41Z</time>
  </trkpt>
  <trkpt lat="46.773493" lon="23.538500">
   <ele>427.5</ele>
   <time>2021-08-17T10:14:46Z</time>
  </trkpt>
  <trkpt lat="46.773437" lon="23.538328">
   <ele>428</ele>
   <time>2021-08-17T10:14:52Z</time>
  </trkpt>
  <trkpt lat="46.773407" lon="23.538173">
   <ele>429.1</ele>
   <time>2021-08-17T10:14:57Z</time>
  </trkpt>
  <trkpt lat="46.773398" lon="23.538145">
   <ele>429.1</ele>
   <time>2021-08-17T10:14:58Z</time>
  </trkpt>
  <trkpt lat="46.773344" lon="23.537984">
   <ele>429.3</ele>
   <time>2021-08-17T10:15:04Z</time>
  </trkpt>
  <trkpt lat="46.773344" lon="23.537930">
   <ele>429.3</ele>
   <time>2021-08-17T10:15:06Z</time>
  </trkpt>
  <trkpt lat="46.773348" lon="23.537780">
   <ele>429.3</ele>
   <time>2021-08-17T10:15:11Z</time>
  </trkpt>
  <trkpt lat="46.773367" lon="23.537586">
   <ele>429.2</ele>
   <time>2021-08-17T10:15:17Z</time>
  </trkpt>
  <trkpt lat="46.773372" lon="23.537550">
   <ele>429.2</ele>
   <time>2021-08-17T10:15:18Z</time>
  </trkpt>
  <trkpt lat="46.773409" lon="23.537412">
   <ele>429.1</ele>
   <time>2021-08-17T10:15:23Z</time>
  </trkpt>
  <trkpt lat="46.773426" lon="23.537398">
   <ele>429.1</ele>
   <time>2021-08-17T10:15:24Z</time>
  </trkpt>
  <trkpt lat="46.773447" lon="23.537369">
   <ele>429.1</ele>
   <time>2021-08-17T10:15:26Z</time>
  </trkpt>
  <trkpt lat="46.773456" lon="23.537342">
   <ele>429.1</ele>
   <time>2021-08-17T10:15:27Z</time>
  </trkpt>
  <trkpt lat="46.773516" lon="23.537179">
   <ele>429.4</ele>
   <time>2021-08-17T10:15:33Z</time>
  </trkpt>
  <trkpt lat="46.773537" lon="23.537043">
   <ele>429.7</ele>
   <time>2021-08-17T10:15:39Z</time>
  </trkpt>
  <trkpt lat="46.773547" lon="23.536997">
   <ele>429.8</ele>
   <time>2021-08-17T10:15:41Z</time>
  </trkpt>
  <trkpt lat="46.773575" lon="23.536864">
   <ele>430.3</ele>
   <time>2021-08-17T10:15:47Z</time>
  </trkpt>
  <trkpt lat="46.773581" lon="23.536843">
   <ele>430.4</ele>
   <time>2021-08-17T10:15:48Z</time>
  </trkpt>
  <trkpt lat="46.773631" lon="23.536712">
   <ele>431</ele>
   <time>2021-08-17T10:15:54Z</time>
  </trkpt>
  <trkpt lat="46.773634" lon="23.536687">
   <ele>431.1</ele>
   <time>2021-08-17T10:15:55Z</time>
  </trkpt>
  <trkpt lat="46.773636" lon="23.536646">
   <ele>431.3</ele>
   <time>2021-08-17T10:15:57Z</time>
  </trkpt>
  <trkpt lat="46.773641" lon="23.536494">
   <ele>432</ele>
   <time>2021-08-17T10:16:03Z</time>
  </trkpt>
  <trkpt lat="46.773642" lon="23.536469">
   <ele>432.1</ele>
   <time>2021-08-17T10:16:04Z</time>
  </trkpt>
  <trkpt lat="46.773650" lon="23.536427">
   <ele>432.3</ele>
   <time>2021-08-17T10:16:06Z</time>
  </trkpt>
  <trkpt lat="46.773656" lon="23.536385">
   <ele>432.5</ele>
   <time>2021-08-17T10:16:08Z</time>
  </trkpt>
  <trkpt lat="46.773662" lon="23.536338">
   <ele>432.7</ele>
   <time>2021-08-17T10:16:10Z</time>
  </trkpt>
  <trkpt lat="46.773665" lon="23.536317">
   <ele>432.8</ele>
   <time>2021-08-17T10:16:11Z</time>
  </trkpt>
  <trkpt lat="46.773668" lon="23.536298">
   <ele>432.8</ele>
   <time>2021-08-17T10:16:12Z</time>
  </trkpt>
  <trkpt lat="46.773666" lon="23.536273">
   <ele>432.9</ele>
   <time>2021-08-17T10:16:13Z</time>
  </trkpt>
  <trkpt lat="46.773660" lon="23.536248">
   <ele>433</ele>
   <time>2021-08-17T10:16:14Z</time>
  </trkpt>
  <trkpt lat="46.773644" lon="23.536170">
   <ele>433.3</ele>
   <time>2021-08-17T10:16:17Z</time>
  </trkpt>
  <trkpt lat="46.773646" lon="23.536005">
   <ele>433.7</ele>
   <time>2021-08-17T10:16:23Z</time>
  </trkpt>
  <trkpt lat="46.773639" lon="23.535935">
   <ele>433.8</ele>
   <time>2021-08-17T10:16:26Z</time>
  </trkpt>
  <trkpt lat="46.773614" lon="23.535772">
   <ele>434</ele>
   <time>2021-08-17T10:16:32Z</time>
  </trkpt>
  <trkpt lat="46.773611" lon="23.535743">
   <ele>434.1</ele>
   <time>2021-08-17T10:16:33Z</time>
  </trkpt>
  <trkpt lat="46.773609" lon="23.535636">
   <ele>434.3</ele>
   <time>2021-08-17T10:16:37Z</time>
  </trkpt>
  <trkpt lat="46.773609" lon="23.535565">
   <ele>434.4</ele>
   <time>2021-08-17T10:16:40Z</time>
  </trkpt>
  <trkpt lat="46.773610" lon="23.535540">
   <ele>434.5</ele>
   <time>2021-08-17T10:16:41Z</time>
  </trkpt>
  <trkpt lat="46.773610" lon="23.535392">
   <ele>434.8</ele>
   <time>2021-08-17T10:16:47Z</time>
  </trkpt>
  <trkpt lat="46.773620" lon="23.535342">
   <ele>435</ele>
   <time>2021-08-17T10:16:49Z</time>
  </trkpt>
  <trkpt lat="46.773659" lon="23.535201">
   <ele>435.4</ele>
   <time>2021-08-17T10:16:55Z</time>
  </trkpt>
  <trkpt lat="46.773658" lon="23.535172">
   <ele>435.5</ele>
   <time>2021-08-17T10:16:56Z</time>
  </trkpt>
  <trkpt lat="46.773670" lon="23.535033">
   <ele>435.8</ele>
   <time>2021-08-17T10:17:02Z</time>
  </trkpt>
  <trkpt lat="46.773674" lon="23.535016">
   <ele>435.9</ele>
   <time>2021-08-17T10:17:03Z</time>
  </trkpt>
  <trkpt lat="46.773674" lon="23.534880">
   <ele>436.3</ele>
   <time>2021-08-17T10:17:08Z</time>
  </trkpt>
  <trkpt lat="46.773670" lon="23.534851">
   <ele>436.4</ele>
   <time>2021-08-17T10:17:09Z</time>
  </trkpt>
  <trkpt lat="46.773670" lon="23.534798">
   <ele>436.5</ele>
   <time>2021-08-17T10:17:11Z</time>
  </trkpt>
  <trkpt lat="46.773694" lon="23.534678">
   <ele>437</ele>
   <time>2021-08-17T10:17:15Z</time>
  </trkpt>
  <trkpt lat="46.773698" lon="23.534635">
   <ele>437.2</ele>
   <time>2021-08-17T10:17:17Z</time>
  </trkpt>
  <trkpt lat="46.773700" lon="23.534609">
   <ele>437.3</ele>
   <time>2021-08-17T10:17:18Z</time>
  </trkpt>
  <trkpt lat="46.773702" lon="23.534584">
   <ele>437.4</ele>
   <time>2021-08-17T10:17:19Z</time>
  </trkpt>
  <trkpt lat="46.773706" lon="23.534559">
   <ele>437.5</ele>
   <time>2021-08-17T10:17:20Z</time>
  </trkpt>
  <trkpt lat="46.773707" lon="23.534456">
   <ele>437.9</ele>
   <time>2021-08-17T10:17:24Z</time>
  </trkpt>
  <trkpt lat="46.773698" lon="23.534354">
   <ele>438.4</ele>
   <time>2021-08-17T10:17:28Z</time>
  </trkpt>
  <trkpt lat="46.773695" lon="23.534286">
   <ele>438.7</ele>
   <time>2021-08-17T10:17:31Z</time>
  </trkpt>
  <trkpt lat="46.773692" lon="23.534196">
   <ele>439.1</ele>
   <time>2021-08-17T10:17:35Z</time>
  </trkpt>
  <trkpt lat="46.773687" lon="23.534153">
   <ele>439.2</ele>
   <time>2021-08-17T10:17:37Z</time>
  </trkpt>
  <trkpt lat="46.773690" lon="23.534109">
   <ele>439.4</ele>
   <time>2021-08-17T10:17:39Z</time>
  </trkpt>
  <trkpt lat="46.773691" lon="23.534013">
   <ele>439.8</ele>
   <time>2021-08-17T10:17:43Z</time>
  </trkpt>
  <trkpt lat="46.773668" lon="23.533929">
   <ele>440.1</ele>
   <time>2021-08-17T10:17:46Z</time>
  </trkpt>
  <trkpt lat="46.773670" lon="23.533847">
   <ele>440.4</ele>
   <time>2021-08-17T10:17:49Z</time>
  </trkpt>
  <trkpt lat="46.773674" lon="23.533822">
   <ele>440.5</ele>
   <time>2021-08-17T10:17:50Z</time>
  </trkpt>
  <trkpt lat="46.773684" lon="23.533774">
   <ele>440.7</ele>
   <time>2021-08-17T10:17:52Z</time>
  </trkpt>
  <trkpt lat="46.773691" lon="23.533695">
   <ele>441</ele>
   <time>2021-08-17T10:17:55Z</time>
  </trkpt>
  <trkpt lat="46.773673" lon="23.533570">
   <ele>441.5</ele>
   <time>2021-08-17T10:17:59Z</time>
  </trkpt>
  <trkpt lat="46.773672" lon="23.533539">
   <ele>441.6</ele>
   <time>2021-08-17T10:18:00Z</time>
  </trkpt>
  <trkpt lat="46.773669" lon="23.533377">
   <ele>442.2</ele>
   <time>2021-08-17T10:18:06Z</time>
  </trkpt>
  <trkpt lat="46.773670" lon="23.533355">
   <ele>442.2</ele>
   <time>2021-08-17T10:18:07Z</time>
  </trkpt>
  <trkpt lat="46.773669" lon="23.533305">
   <ele>442.3</ele>
   <time>2021-08-17T10:18:09Z</time>
  </trkpt>
  <trkpt lat="46.773678" lon="23.533193">
   <ele>442.5</ele>
   <time>2021-08-17T10:18:13Z</time>
  </trkpt>
  <trkpt lat="46.773680" lon="23.533120">
   <ele>442.5</ele>
   <time>2021-08-17T10:18:16Z</time>
  </trkpt>
  <trkpt lat="46.773666" lon="23.533004">
   <ele>442.5</ele>
   <time>2021-08-17T10:18:20Z</time>
  </trkpt>
  <trkpt lat="46.773633" lon="23.532899">
   <ele>442.3</ele>
   <time>2021-08-17T10:18:23Z</time>
  </trkpt>
  <trkpt lat="46.773631" lon="23.532812">
   <ele>442.2</ele>
   <time>2021-08-17T10:18:26Z</time>
  </trkpt>
  <trkpt lat="46.773654" lon="23.532566">
   <ele>441.8</ele>
   <time>2021-08-17T10:18:32Z</time>
  </trkpt>
  <trkpt lat="46.773652" lon="23.532528">
   <ele>441.8</ele>
   <time>2021-08-17T10:18:33Z</time>
  </trkpt>
  <trkpt lat="46.773648" lon="23.532491">
   <ele>441.7</ele>
   <time>2021-08-17T10:18:34Z</time>
  </trkpt>
  <trkpt lat="46.773570" lon="23.532326">
   <ele>441.7</ele>
   <time>2021-08-17T10:18:39Z</time>
  </trkpt>
  <trkpt lat="46.773502" lon="23.532099">
   <ele>441.9</ele>
   <time>2021-08-17T10:18:45Z</time>
  </trkpt>
  <trkpt lat="46.773496" lon="23.532072">
   <ele>441.9</ele>
   <time>2021-08-17T10:18:46Z</time>
  </trkpt>
  <trkpt lat="46.773479" lon="23.531997">
   <ele>442.1</ele>
   <time>2021-08-17T10:18:49Z</time>
  </trkpt>
  <trkpt lat="46.773500" lon="23.531949">
   <ele>442.2</ele>
   <time>2021-08-17T10:18:51Z</time>
  </trkpt>
  <trkpt lat="46.773512" lon="23.531929">
   <ele>442.3</ele>
   <time>2021-08-17T10:18:52Z</time>
  </trkpt>
  <trkpt lat="46.773522" lon="23.531903">
   <ele>442.4</ele>
   <time>2021-08-17T10:18:53Z</time>
  </trkpt>
  <trkpt lat="46.773537" lon="23.531779">
   <ele>442.8</ele>
   <time>2021-08-17T10:18:58Z</time>
  </trkpt>
  <trkpt lat="46.773528" lon="23.531739">
   <ele>443</ele>
   <time>2021-08-17T10:19:00Z</time>
  </trkpt>
  <trkpt lat="46.773502" lon="23.531631">
   <ele>443.4</ele>
   <time>2021-08-17T10:19:05Z</time>
  </trkpt>
  <trkpt lat="46.773500" lon="23.531612">
   <ele>443.5</ele>
   <time>2021-08-17T10:19:06Z</time>
  </trkpt>
  <trkpt lat="46.773493" lon="23.531487">
   <ele>444.1</ele>
   <time>2021-08-17T10:19:12Z</time>
  </trkpt>
  <trkpt lat="46.773483" lon="23.531433">
   <ele>444.4</ele>
   <time>2021-08-17T10:19:14Z</time>
  </trkpt>
  <trkpt lat="46.773487" lon="23.531389">
   <ele>444.7</ele>
   <time>2021-08-17T10:19:16Z</time>
  </trkpt>
  <trkpt lat="46.773490" lon="23.531360">
   <ele>444.8</ele>
   <time>2021-08-17T10:19:17Z</time>
  </trkpt>
  <trkpt lat="46.773491" lon="23.531313">
   <ele>445.1</ele>
   <time>2021-08-17T10:19:19Z</time>
  </trkpt>
  <trkpt lat="46.773488" lon="23.531230">
   <ele>445.5</ele>
   <time>2021-08-17T10:19:22Z</time>
  </trkpt>
  <trkpt lat="46.773467" lon="23.531163">
   <ele>445.9</ele>
   <time>2021-08-17T10:19:24Z</time>
  </trkpt>
  <trkpt lat="46.773461" lon="23.531104">
   <ele>446.3</ele>
   <time>2021-08-17T10:19:26Z</time>
  </trkpt>
  <trkpt lat="46.773439" lon="23.530949">
   <ele>447.2</ele>
   <time>2021-08-17T10:19:31Z</time>
  </trkpt>
  <trkpt lat="46.773436" lon="23.530866">
   <ele>447.7</ele>
   <time>2021-08-17T10:19:34Z</time>
  </trkpt>
  <trkpt lat="46.773421" lon="23.530783">
   <ele>448.1</ele>
   <time>2021-08-17T10:19:37Z</time>
  </trkpt>
  <trkpt lat="46.773414" lon="23.530708">
   <ele>448.5</ele>
   <time>2021-08-17T10:19:40Z</time>
  </trkpt>
  <trkpt lat="46.773398" lon="23.530681">
   <ele>448.7</ele>
   <time>2021-08-17T10:19:41Z</time>
  </trkpt>
  <trkpt lat="46.773353" lon="23.530577">
   <ele>449.2</ele>
   <time>2021-08-17T10:19:45Z</time>
  </trkpt>
  <trkpt lat="46.773339" lon="23.530522">
   <ele>449.4</ele>
   <time>2021-08-17T10:19:47Z</time>
  </trkpt>
  <trkpt lat="46.773327" lon="23.530464">
   <ele>449.6</ele>
   <time>2021-08-17T10:19:49Z</time>
  </trkpt>
  <trkpt lat="46.773309" lon="23.530334">
   <ele>450</ele>
   <time>2021-08-17T10:19:54Z</time>
  </trkpt>
  <trkpt lat="46.773295" lon="23.530180">
   <ele>450.2</ele>
   <time>2021-08-17T10:20:00Z</time>
  </trkpt>
  <trkpt lat="46.773266" lon="23.530082">
   <ele>450.3</ele>
   <time>2021-08-17T10:20:03Z</time>
  </trkpt>
  <trkpt lat="46.773213" lon="23.529899">
   <ele>450.5</ele>
   <time>2021-08-17T10:20:09Z</time>
  </trkpt>
  <trkpt lat="46.773210" lon="23.529869">
   <ele>450.5</ele>
   <time>2021-08-17T10:20:10Z</time>
  </trkpt>
  <trkpt lat="46.773208" lon="23.529844">
   <ele>450.5</ele>
   <time>2021-08-17T10:20:11Z</time>
  </trkpt>
  <trkpt lat="46.773199" lon="23.529710">
   <ele>450.6</ele>
   <time>2021-08-17T10:20:16Z</time>
  </trkpt>
  <trkpt lat="46.773201" lon="23.529640">
   <ele>450.6</ele>
   <time>2021-08-17T10:20:19Z</time>
  </trkpt>
  <trkpt lat="46.773196" lon="23.529552">
   <ele>450.7</ele>
   <time>2021-08-17T10:20:22Z</time>
  </trkpt>
  <trkpt lat="46.773164" lon="23.529354">
   <ele>450.9</ele>
   <time>2021-08-17T10:20:28Z</time>
  </trkpt>
  <trkpt lat="46.773134" lon="23.529175">
   <ele>451.2</ele>
   <time>2021-08-17T10:20:33Z</time>
  </trkpt>
  <trkpt lat="46.773108" lon="23.529115">
   <ele>451.2</ele>
   <time>2021-08-17T10:20:35Z</time>
  </trkpt>
  <trkpt lat="46.773081" lon="23.528943">
   <ele>451.5</ele>
   <time>2021-08-17T10:20:41Z</time>
  </trkpt>
  <trkpt lat="46.773083" lon="23.528923">
   <ele>451.5</ele>
   <time>2021-08-17T10:20:42Z</time>
  </trkpt>
  <trkpt lat="46.773098" lon="23.528851">
   <ele>451.5</ele>
   <time>2021-08-17T10:20:45Z</time>
  </trkpt>
  <trkpt lat="46.773099" lon="23.528803">
   <ele>451.6</ele>
   <time>2021-08-17T10:20:47Z</time>
  </trkpt>
  <trkpt lat="46.773093" lon="23.528754">
   <ele>451.6</ele>
   <time>2021-08-17T10:20:49Z</time>
  </trkpt>
  <trkpt lat="46.773057" lon="23.528580">
   <ele>451.7</ele>
   <time>2021-08-17T10:20:55Z</time>
  </trkpt>
  <trkpt lat="46.773006" lon="23.528380">
   <ele>451.8</ele>
   <time>2021-08-17T10:21:01Z</time>
  </trkpt>
  <trkpt lat="46.772987" lon="23.528182">
   <ele>451.8</ele>
   <time>2021-08-17T10:21:07Z</time>
  </trkpt>
  <trkpt lat="46.772995" lon="23.528000">
   <ele>451.9</ele>
   <time>2021-08-17T10:21:13Z</time>
  </trkpt>
  <trkpt lat="46.773004" lon="23.527975">
   <ele>451.8</ele>
   <time>2021-08-17T10:21:14Z</time>
  </trkpt>
  <trkpt lat="46.773025" lon="23.527921">
   <ele>451.8</ele>
   <time>2021-08-17T10:21:16Z</time>
  </trkpt>
  <trkpt lat="46.773063" lon="23.527837">
   <ele>451.7</ele>
   <time>2021-08-17T10:21:19Z</time>
  </trkpt>
  <trkpt lat="46.773095" lon="23.527773">
   <ele>451.6</ele>
   <time>2021-08-17T10:21:21Z</time>
  </trkpt>
  <trkpt lat="46.773171" lon="23.527580">
   <ele>451.3</ele>
   <time>2021-08-17T10:21:27Z</time>
  </trkpt>
  <trkpt lat="46.773184" lon="23.527556">
   <ele>451.3</ele>
   <time>2021-08-17T10:21:28Z</time>
  </trkpt>
  <trkpt lat="46.773199" lon="23.527531">
   <ele>451.3</ele>
   <time>2021-08-17T10:21:29Z</time>
  </trkpt>
  <trkpt lat="46.773211" lon="23.527508">
   <ele>451.3</ele>
   <time>2021-08-17T10:21:30Z</time>
  </trkpt>
  <trkpt lat="46.773237" lon="23.527399">
   <ele>451.3</ele>
   <time>2021-08-17T10:21:34Z</time>
  </trkpt>
  <trkpt lat="46.773251" lon="23.527332">
   <ele>451.2</ele>
   <time>2021-08-17T10:21:37Z</time>
  </trkpt>
  <trkpt lat="46.773260" lon="23.527304">
   <ele>451.2</ele>
   <time>2021-08-17T10:21:38Z</time>
  </trkpt>
  <trkpt lat="46.773287" lon="23.527223">
   <ele>451.1</ele>
   <time>2021-08-17T10:21:41Z</time>
  </trkpt>
  <trkpt lat="46.773345" lon="23.527018">
   <ele>450.7</ele>
   <time>2021-08-17T10:21:47Z</time>
  </trkpt>
  <trkpt lat="46.773358" lon="23.526981">
   <ele>450.6</ele>
   <time>2021-08-17T10:21:48Z</time>
  </trkpt>
  <trkpt lat="46.773371" lon="23.526947">
   <ele>450.6</ele>
   <time>2021-08-17T10:21:49Z</time>
  </trkpt>
  <trkpt lat="46.773445" lon="23.526800">
   <ele>450.1</ele>
   <time>2021-08-17T10:21:54Z</time>
  </trkpt>
  <trkpt lat="46.773465" lon="23.526775">
   <ele>450</ele>
   <time>2021-08-17T10:21:55Z</time>
  </trkpt>
  <trkpt lat="46.773577" lon="23.526633">
   <ele>449.4</ele>
   <time>2021-08-17T10:22:01Z</time>
  </trkpt>
  <trkpt lat="46.773596" lon="23.526612">
   <ele>449.3</ele>
   <time>2021-08-17T10:22:02Z</time>
  </trkpt>
  <trkpt lat="46.773732" lon="23.526439">
   <ele>448.8</ele>
   <time>2021-08-17T10:22:08Z</time>
  </trkpt>
  <trkpt lat="46.773754" lon="23.526410">
   <ele>448.8</ele>
   <time>2021-08-17T10:22:09Z</time>
  </trkpt>
  <trkpt lat="46.773868" lon="23.526225">
   <ele>449</ele>
   <time>2021-08-17T10:22:15Z</time>
  </trkpt>
  <trkpt lat="46.773886" lon="23.526199">
   <ele>449.1</ele>
   <time>2021-08-17T10:22:16Z</time>
  </trkpt>
  <trkpt lat="46.773898" lon="23.526170">
   <ele>449.1</ele>
   <time>2021-08-17T10:22:17Z</time>
  </trkpt>
  <trkpt lat="46.773986" lon="23.526022">
   <ele>449.4</ele>
   <time>2021-08-17T10:22:23Z</time>
  </trkpt>
  <trkpt lat="46.774070" lon="23.525866">
   <ele>449.6</ele>
   <time>2021-08-17T10:22:29Z</time>
  </trkpt>
  <trkpt lat="46.774100" lon="23.525821">
   <ele>449.7</ele>
   <time>2021-08-17T10:22:31Z</time>
  </trkpt>
  <trkpt lat="46.774174" lon="23.525695">
   <ele>449.7</ele>
   <time>2021-08-17T10:22:37Z</time>
  </trkpt>
  <trkpt lat="46.774261" lon="23.525593">
   <ele>449.6</ele>
   <time>2021-08-17T10:22:43Z</time>
  </trkpt>
  <trkpt lat="46.774278" lon="23.525581">
   <ele>449.6</ele>
   <time>2021-08-17T10:22:44Z</time>
  </trkpt>
  <trkpt lat="46.774349" lon="23.525555">
   <ele>449.4</ele>
   <time>2021-08-17T10:22:48Z</time>
  </trkpt>
  <trkpt lat="46.774383" lon="23.525553">
   <ele>449.3</ele>
   <time>2021-08-17T10:22:50Z</time>
  </trkpt>
  <trkpt lat="46.774400" lon="23.525547">
   <ele>449.3</ele>
   <time>2021-08-17T10:22:51Z</time>
  </trkpt>
  <trkpt lat="46.774460" lon="23.525533">
   <ele>449</ele>
   <time>2021-08-17T10:22:54Z</time>
  </trkpt>
  <trkpt lat="46.774497" lon="23.525530">
   <ele>448.9</ele>
   <time>2021-08-17T10:22:56Z</time>
  </trkpt>
  <trkpt lat="46.774536" lon="23.525528">
   <ele>448.7</ele>
   <time>2021-08-17T10:22:58Z</time>
  </trkpt>
  <trkpt lat="46.774706" lon="23.525529">
   <ele>447.6</ele>
   <time>2021-08-17T10:23:04Z</time>
  </trkpt>
  <trkpt lat="46.774739" lon="23.525523">
   <ele>447.4</ele>
   <time>2021-08-17T10:23:05Z</time>
  </trkpt>
  <trkpt lat="46.774886" lon="23.525493">
   <ele>446</ele>
   <time>2021-08-17T10:23:09Z</time>
  </trkpt>
  <trkpt lat="46.774968" lon="23.525471">
   <ele>445.2</ele>
   <time>2021-08-17T10:23:11Z</time>
  </trkpt>
  <trkpt lat="46.775072" lon="23.525436">
   <ele>444</ele>
   <time>2021-08-17T10:23:14Z</time>
  </trkpt>
  <trkpt lat="46.775137" lon="23.525404">
   <ele>443.2</ele>
   <time>2021-08-17T10:23:16Z</time>
  </trkpt>
  <trkpt lat="46.775204" lon="23.525368">
   <ele>442.3</ele>
   <time>2021-08-17T10:23:18Z</time>
  </trkpt>
  <trkpt lat="46.775263" lon="23.525332">
   <ele>441.6</ele>
   <time>2021-08-17T10:23:20Z</time>
  </trkpt>
  <trkpt lat="46.775360" lon="23.525285">
   <ele>440.4</ele>
   <time>2021-08-17T10:23:23Z</time>
  </trkpt>
  <trkpt lat="46.775394" lon="23.525276">
   <ele>440</ele>
   <time>2021-08-17T10:23:24Z</time>
  </trkpt>
  <trkpt lat="46.775425" lon="23.525275">
   <ele>439.7</ele>
   <time>2021-08-17T10:23:25Z</time>
  </trkpt>
  <trkpt lat="46.775584" lon="23.525286">
   <ele>437.9</ele>
   <time>2021-08-17T10:23:30Z</time>
  </trkpt>
  <trkpt lat="46.775662" lon="23.525295">
   <ele>437.1</ele>
   <time>2021-08-17T10:23:32Z</time>
  </trkpt>
  <trkpt lat="46.775703" lon="23.525305">
   <ele>436.6</ele>
   <time>2021-08-17T10:23:33Z</time>
  </trkpt>
  <trkpt lat="46.775809" lon="23.525326">
   <ele>435.4</ele>
   <time>2021-08-17T10:23:36Z</time>
  </trkpt>
  <trkpt lat="46.775889" lon="23.525343">
   <ele>434.6</ele>
   <time>2021-08-17T10:23:38Z</time>
  </trkpt>
  <trkpt lat="46.775968" lon="23.525349">
   <ele>433.8</ele>
   <time>2021-08-17T10:23:40Z</time>
  </trkpt>
  <trkpt lat="46.776090" lon="23.525390">
   <ele>432.7</ele>
   <time>2021-08-17T10:23:44Z</time>
  </trkpt>
  <trkpt lat="46.776117" lon="23.525401">
   <ele>432.4</ele>
   <time>2021-08-17T10:23:45Z</time>
  </trkpt>
  <trkpt lat="46.776191" lon="23.525433">
   <ele>431.7</ele>
   <time>2021-08-17T10:23:48Z</time>
  </trkpt>
  <trkpt lat="46.776274" lon="23.525460">
   <ele>431</ele>
   <time>2021-08-17T10:23:51Z</time>
  </trkpt>
  <trkpt lat="46.776322" lon="23.525474">
   <ele>430.6</ele>
   <time>2021-08-17T10:23:53Z</time>
  </trkpt>
  <trkpt lat="46.776344" lon="23.525476">
   <ele>430.4</ele>
   <time>2021-08-17T10:23:54Z</time>
  </trkpt>
  <trkpt lat="46.776464" lon="23.525472">
   <ele>429.5</ele>
   <time>2021-08-17T10:23:58Z</time>
  </trkpt>
  <trkpt lat="46.776568" lon="23.525471">
   <ele>428.7</ele>
   <time>2021-08-17T10:24:01Z</time>
  </trkpt>
  <trkpt lat="46.776624" lon="23.525487">
   <ele>428.2</ele>
   <time>2021-08-17T10:24:03Z</time>
  </trkpt>
  <trkpt lat="46.776713" lon="23.525501">
   <ele>427.5</ele>
   <time>2021-08-17T10:24:06Z</time>
  </trkpt>
  <trkpt lat="46.776742" lon="23.525499">
   <ele>427.3</ele>
   <time>2021-08-17T10:24:07Z</time>
  </trkpt>
  <trkpt lat="46.776818" lon="23.525471">
   <ele>426.3</ele>
   <time>2021-08-17T10:24:10Z</time>
  </trkpt>
  <trkpt lat="46.776848" lon="23.525457">
   <ele>426</ele>
   <time>2021-08-17T10:24:11Z</time>
  </trkpt>
  <trkpt lat="46.776988" lon="23.525393">
   <ele>424.8</ele>
   <time>2021-08-17T10:24:17Z</time>
  </trkpt>
  <trkpt lat="46.777000" lon="23.525380">
   <ele>424.7</ele>
   <time>2021-08-17T10:24:18Z</time>
  </trkpt>
  <trkpt lat="46.777004" lon="23.525370">
   <ele>424.6</ele>
   <time>2021-08-17T10:24:19Z</time>
  </trkpt>
  <trkpt lat="46.777004" lon="23.525369">
   <ele>424.6</ele>
   <time>2021-08-17T10:24:20Z</time>
  </trkpt>
  <trkpt lat="46.777002" lon="23.525368">
   <ele>424.6</ele>
   <time>2021-08-17T10:24:22Z</time>
  </trkpt>
  <trkpt lat="46.777137" lon="23.525211">
   <ele>423.2</ele>
   <time>2021-08-17T10:24:59Z</time>
  </trkpt>
  <trkpt lat="46.777155" lon="23.525182">
   <ele>423</ele>
   <time>2021-08-17T10:25:00Z</time>
  </trkpt>
  <trkpt lat="46.777213" lon="23.525104">
   <ele>422.3</ele>
   <time>2021-08-17T10:25:03Z</time>
  </trkpt>
  <trkpt lat="46.777255" lon="23.525054">
   <ele>421.9</ele>
   <time>2021-08-17T10:25:05Z</time>
  </trkpt>
  <trkpt lat="46.777275" lon="23.525024">
   <ele>421.7</ele>
   <time>2021-08-17T10:25:06Z</time>
  </trkpt>
  <trkpt lat="46.777409" lon="23.524821">
   <ele>419.9</ele>
   <time>2021-08-17T10:25:12Z</time>
  </trkpt>
  <trkpt lat="46.777433" lon="23.524788">
   <ele>419.6</ele>
   <time>2021-08-17T10:25:13Z</time>
  </trkpt>
  <trkpt lat="46.777492" lon="23.524716">
   <ele>418.8</ele>
   <time>2021-08-17T10:25:15Z</time>
  </trkpt>
  <trkpt lat="46.777553" lon="23.524647">
   <ele>417.9</ele>
   <time>2021-08-17T10:25:17Z</time>
  </trkpt>
  <trkpt lat="46.777583" lon="23.524611">
   <ele>417.5</ele>
   <time>2021-08-17T10:25:18Z</time>
  </trkpt>
  <trkpt lat="46.777647" lon="23.524544">
   <ele>416.6</ele>
   <time>2021-08-17T10:25:20Z</time>
  </trkpt>
  <trkpt lat="46.777684" lon="23.524508">
   <ele>416.1</ele>
   <time>2021-08-17T10:25:21Z</time>
  </trkpt>
  <trkpt lat="46.777721" lon="23.524477">
   <ele>415.6</ele>
   <time>2021-08-17T10:25:22Z</time>
  </trkpt>
  <trkpt lat="46.777753" lon="23.524449">
   <ele>415.3</ele>
   <time>2021-08-17T10:25:23Z</time>
  </trkpt>
  <trkpt lat="46.777790" lon="23.524424">
   <ele>414.9</ele>
   <time>2021-08-17T10:25:24Z</time>
  </trkpt>
  <trkpt lat="46.777860" lon="23.524374">
   <ele>414.1</ele>
   <time>2021-08-17T10:25:26Z</time>
  </trkpt>
  <trkpt lat="46.777973" lon="23.524273">
   <ele>412.8</ele>
   <time>2021-08-17T10:25:30Z</time>
  </trkpt>
  <trkpt lat="46.778007" lon="23.524243">
   <ele>412.5</ele>
   <time>2021-08-17T10:25:31Z</time>
  </trkpt>
  <trkpt lat="46.778062" lon="23.524165">
   <ele>411.8</ele>
   <time>2021-08-17T10:25:33Z</time>
  </trkpt>
  <trkpt lat="46.778111" lon="23.524072">
   <ele>411.1</ele>
   <time>2021-08-17T10:25:35Z</time>
  </trkpt>
  <trkpt lat="46.778214" lon="23.523873">
   <ele>409.6</ele>
   <time>2021-08-17T10:25:39Z</time>
  </trkpt>
  <trkpt lat="46.778244" lon="23.523802">
   <ele>409.1</ele>
   <time>2021-08-17T10:25:41Z</time>
  </trkpt>
  <trkpt lat="46.778261" lon="23.523676">
   <ele>408.3</ele>
   <time>2021-08-17T10:25:44Z</time>
  </trkpt>
  <trkpt lat="46.778293" lon="23.523543">
   <ele>407.4</ele>
   <time>2021-08-17T10:25:47Z</time>
  </trkpt>
  <trkpt lat="46.778304" lon="23.523505">
   <ele>407.1</ele>
   <time>2021-08-17T10:25:48Z</time>
  </trkpt>
  <trkpt lat="46.778328" lon="23.523393">
   <ele>406.3</ele>
   <time>2021-08-17T10:25:51Z</time>
  </trkpt>
  <trkpt lat="46.778338" lon="23.523318">
   <ele>405.7</ele>
   <time>2021-08-17T10:25:53Z</time>
  </trkpt>
  <trkpt lat="46.778350" lon="23.523246">
   <ele>405.2</ele>
   <time>2021-08-17T10:25:55Z</time>
  </trkpt>
  <trkpt lat="46.778355" lon="23.523160">
   <ele>404.6</ele>
   <time>2021-08-17T10:25:57Z</time>
  </trkpt>
  <trkpt lat="46.778360" lon="23.523057">
   <ele>404</ele>
   <time>2021-08-17T10:25:59Z</time>
  </trkpt>
  <trkpt lat="46.778366" lon="23.523007">
   <ele>403.7</ele>
   <time>2021-08-17T10:26:00Z</time>
  </trkpt>
  <trkpt lat="46.778387" lon="23.522833">
   <ele>402.7</ele>
   <time>2021-08-17T10:26:04Z</time>
  </trkpt>
  <trkpt lat="46.778352" lon="23.522701">
   <ele>402</ele>
   <time>2021-08-17T10:26:07Z</time>
  </trkpt>
  <trkpt lat="46.778335" lon="23.522642">
   <ele>401.6</ele>
   <time>2021-08-17T10:26:09Z</time>
  </trkpt>
  <trkpt lat="46.778329" lon="23.522629">
   <ele>401.6</ele>
   <time>2021-08-17T10:26:10Z</time>
  </trkpt>
  <trkpt lat="46.778326" lon="23.522628">
   <ele>401.5</ele>
   <time>2021-08-17T10:26:12Z</time>
  </trkpt>
  <trkpt lat="46.778320" lon="23.522638">
   <ele>401.5</ele>
   <time>2021-08-17T10:26:14Z</time>
  </trkpt>
  <trkpt lat="46.778222" lon="23.522432">
   <ele>400.3</ele>
   <time>2021-08-17T10:26:32Z</time>
  </trkpt>
  <trkpt lat="46.778178" lon="23.522378">
   <ele>399.9</ele>
   <time>2021-08-17T10:26:34Z</time>
  </trkpt>
  <trkpt lat="46.778019" lon="23.522297">
   <ele>398.7</ele>
   <time>2021-08-17T10:26:40Z</time>
  </trkpt>
  <trkpt lat="46.777881" lon="23.522296">
   <ele>397.6</ele>
   <time>2021-08-17T10:26:44Z</time>
  </trkpt>
  <trkpt lat="46.777845" lon="23.522298">
   <ele>397.3</ele>
   <time>2021-08-17T10:26:45Z</time>
  </trkpt>
  <trkpt lat="46.777733" lon="23.522279">
   <ele>396.5</ele>
   <time>2021-08-17T10:26:49Z</time>
  </trkpt>
  <trkpt lat="46.777708" lon="23.522267">
   <ele>396.2</ele>
   <time>2021-08-17T10:26:50Z</time>
  </trkpt>
  <trkpt lat="46.777589" lon="23.522195">
   <ele>395.1</ele>
   <time>2021-08-17T10:26:55Z</time>
  </trkpt>
  <trkpt lat="46.777573" lon="23.522189">
   <ele>395.4</ele>
   <time>2021-08-17T10:26:56Z</time>
  </trkpt>
  <trkpt lat="46.777555" lon="23.522183">
   <ele>395.4</ele>
   <time>2021-08-17T10:26:58Z</time>
  </trkpt>
  <trkpt lat="46.777535" lon="23.522159">
   <ele>395.7</ele>
   <time>2021-08-17T10:27:00Z</time>
  </trkpt>
  <trkpt lat="46.776588" lon="23.521615">
   <ele>405.4</ele>
   <time>2021-08-17T10:31:26Z</time>
  </trkpt>
  <trkpt lat="46.776494" lon="23.521519">
   <ele>407</ele>
   <time>2021-08-17T10:31:34Z</time>
  </trkpt>
  <trkpt lat="46.776477" lon="23.521504">
   <ele>407.7</ele>
   <time>2021-08-17T10:31:35Z</time>
  </trkpt>
  <trkpt lat="46.776463" lon="23.521489">
   <ele>408.1</ele>
   <time>2021-08-17T10:31:36Z</time>
  </trkpt>
  <trkpt lat="46.776454" lon="23.521470">
   <ele>408.4</ele>
   <time>2021-08-17T10:31:37Z</time>
  </trkpt>
  <trkpt lat="46.776424" lon="23.521389">
   <ele>409.2</ele>
   <time>2021-08-17T10:31:40Z</time>
  </trkpt>
  <trkpt lat="46.776410" lon="23.521338">
   <ele>409.8</ele>
   <time>2021-08-17T10:31:42Z</time>
  </trkpt>
  <trkpt lat="46.776391" lon="23.521292">
   <ele>410.5</ele>
   <time>2021-08-17T10:31:44Z</time>
  </trkpt>
  <trkpt lat="46.776376" lon="23.521278">
   <ele>410.4</ele>
   <time>2021-08-17T10:31:45Z</time>
  </trkpt>
  <trkpt lat="46.776343" lon="23.521277">
   <ele>411.2</ele>
   <time>2021-08-17T10:31:47Z</time>
  </trkpt>
  <trkpt lat="46.776211" lon="23.521311">
   <ele>412.1</ele>
   <time>2021-08-17T10:31:53Z</time>
  </trkpt>
  <trkpt lat="46.776065" lon="23.521327">
   <ele>413.2</ele>
   <time>2021-08-17T10:31:58Z</time>
  </trkpt>
  <trkpt lat="46.775921" lon="23.521313">
   <ele>413.7</ele>
   <time>2021-08-17T10:32:04Z</time>
  </trkpt>
  <trkpt lat="46.775870" lon="23.521299">
   <ele>414.3</ele>
   <time>2021-08-17T10:32:07Z</time>
  </trkpt>
  <trkpt lat="46.775859" lon="23.521295">
   <ele>414.3</ele>
   <time>2021-08-17T10:32:08Z</time>
  </trkpt>
  <trkpt lat="46.775823" lon="23.521289">
   <ele>414.3</ele>
   <time>2021-08-17T10:32:11Z</time>
  </trkpt>
  <trkpt lat="46.775804" lon="23.521282">
   <ele>414.4</ele>
   <time>2021-08-17T10:32:13Z</time>
  </trkpt>
  <trkpt lat="46.775774" lon="23.521282">
   <ele>414.4</ele>
   <time>2021-08-17T10:32:16Z</time>
  </trkpt>
  <trkpt lat="46.775769" lon="23.521285">
   <ele>414.4</ele>
   <time>2021-08-17T10:32:17Z</time>
  </trkpt>
  <trkpt lat="46.775761" lon="23.521284">
   <ele>414.4</ele>
   <time>2021-08-17T10:32:19Z</time>
  </trkpt>
  <trkpt lat="46.775744" lon="23.521286">
   <ele>414.4</ele>
   <time>2021-08-17T10:32:22Z</time>
  </trkpt>
  <trkpt lat="46.775739" lon="23.521282">
   <ele>414.4</ele>
   <time>2021-08-17T10:32:28Z</time>
  </trkpt>
  <trkpt lat="46.775743" lon="23.521286">
   <ele>414.4</ele>
   <time>2021-08-17T10:32:30Z</time>
  </trkpt>
  <trkpt lat="46.775747" lon="23.521286">
   <ele>414.3</ele>
   <time>2021-08-17T10:32:34Z</time>
  </trkpt>
  <trkpt lat="46.775555" lon="23.521201">
   <ele>415.3</ele>
   <time>2021-08-17T10:33:47Z</time>
  </trkpt>
  <trkpt lat="46.775541" lon="23.521201">
   <ele>415.3</ele>
   <time>2021-08-17T10:33:48Z</time>
  </trkpt>
  <trkpt lat="46.775531" lon="23.521200">
   <ele>415.3</ele>
   <time>2021-08-17T10:33:49Z</time>
  </trkpt>
  <trkpt lat="46.775500" lon="23.521198">
   <ele>415.3</ele>
   <time>2021-08-17T10:33:52Z</time>
  </trkpt>
  <trkpt lat="46.775448" lon="23.521176">
   <ele>415.3</ele>
   <time>2021-08-17T10:33:57Z</time>
  </trkpt>
  <trkpt lat="46.775367" lon="23.521181">
   <ele>415.4</ele>
   <time>2021-08-17T10:34:01Z</time>
  </trkpt>
  <trkpt lat="46.775301" lon="23.521188">
   <ele>415.5</ele>
   <time>2021-08-17T10:34:04Z</time>
  </trkpt>
  <trkpt lat="46.775262" lon="23.521190">
   <ele>415.6</ele>
   <time>2021-08-17T10:34:06Z</time>
  </trkpt>
  <trkpt lat="46.775225" lon="23.521184">
   <ele>415.8</ele>
   <time>2021-08-17T10:34:08Z</time>
  </trkpt>
  <trkpt lat="46.775172" lon="23.521155">
   <ele>416.2</ele>
   <time>2021-08-17T10:34:12Z</time>
  </trkpt>
  <trkpt lat="46.775158" lon="23.521141">
   <ele>416.2</ele>
   <time>2021-08-17T10:34:13Z</time>
  </trkpt>
  <trkpt lat="46.775113" lon="23.521062">
   <ele>416.8</ele>
   <time>2021-08-17T10:34:18Z</time>
  </trkpt>
  <trkpt lat="46.775104" lon="23.521044">
   <ele>416.9</ele>
   <time>2021-08-17T10:34:19Z</time>
  </trkpt>
  <trkpt lat="46.775096" lon="23.521023">
   <ele>417.2</ele>
   <time>2021-08-17T10:34:20Z</time>
  </trkpt>
  <trkpt lat="46.775062" lon="23.520938">
   <ele>418</ele>
   <time>2021-08-17T10:34:24Z</time>
  </trkpt>
  <trkpt lat="46.775031" lon="23.520903">
   <ele>418.4</ele>
   <time>2021-08-17T10:34:26Z</time>
  </trkpt>
  <trkpt lat="46.774992" lon="23.520860">
   <ele>419.2</ele>
   <time>2021-08-17T10:34:29Z</time>
  </trkpt>
  <trkpt lat="46.774971" lon="23.520823">
   <ele>419.5</ele>
   <time>2021-08-17T10:34:31Z</time>
  </trkpt>
  <trkpt lat="46.774958" lon="23.520803">
   <ele>419.6</ele>
   <time>2021-08-17T10:34:32Z</time>
  </trkpt>
  <trkpt lat="46.774922" lon="23.520752">
   <ele>420.1</ele>
   <time>2021-08-17T10:34:35Z</time>
  </trkpt>
  <trkpt lat="46.774906" lon="23.520735">
   <ele>420.6</ele>
   <time>2021-08-17T10:34:36Z</time>
  </trkpt>
  <trkpt lat="46.774864" lon="23.520692">
   <ele>421.1</ele>
   <time>2021-08-17T10:34:39Z</time>
  </trkpt>
  <trkpt lat="46.774852" lon="23.520677">
   <ele>421.1</ele>
   <time>2021-08-17T10:34:40Z</time>
  </trkpt>
  <trkpt lat="46.774794" lon="23.520630">
   <ele>421.9</ele>
   <time>2021-08-17T10:34:44Z</time>
  </trkpt>
  <trkpt lat="46.774771" lon="23.520605">
   <ele>422.6</ele>
   <time>2021-08-17T10:34:46Z</time>
  </trkpt>
  <trkpt lat="46.774719" lon="23.520566">
   <ele>423.7</ele>
   <time>2021-08-17T10:34:50Z</time>
  </trkpt>
  <trkpt lat="46.774677" lon="23.520549">
   <ele>424.1</ele>
   <time>2021-08-17T10:34:53Z</time>
  </trkpt>
  <trkpt lat="46.774653" lon="23.520534">
   <ele>424.6</ele>
   <time>2021-08-17T10:34:55Z</time>
  </trkpt>
  <trkpt lat="46.774641" lon="23.520523">
   <ele>425.4</ele>
   <time>2021-08-17T10:34:56Z</time>
  </trkpt>
  <trkpt lat="46.774601" lon="23.520497">
   <ele>425.8</ele>
   <time>2021-08-17T10:34:59Z</time>
  </trkpt>
  <trkpt lat="46.774593" lon="23.520490">
   <ele>425.8</ele>
   <time>2021-08-17T10:35:01Z</time>
  </trkpt>
  <trkpt lat="46.774585" lon="23.520491">
   <ele>425.7</ele>
   <time>2021-08-17T10:35:04Z</time>
  </trkpt>
  <trkpt lat="46.774582" lon="23.520493">
   <ele>426.1</ele>
   <time>2021-08-17T10:35:05Z</time>
  </trkpt>
  <trkpt lat="46.772994" lon="23.519826">
   <ele>458.5</ele>
   <time>2021-08-17T10:42:42Z</time>
  </trkpt>
  <trkpt lat="46.772979" lon="23.519825">
   <ele>458.5</ele>
   <time>2021-08-17T10:42:43Z</time>
  </trkpt>
  <trkpt lat="46.772924" lon="23.519816">
   <ele>459.4</ele>
   <time>2021-08-17T10:42:46Z</time>
  </trkpt>
  <trkpt lat="46.772905" lon="23.519815">
   <ele>459.8</ele>
   <time>2021-08-17T10:42:47Z</time>
  </trkpt>
  <trkpt lat="46.772819" lon="23.519790">
   <ele>461.9</ele>
   <time>2021-08-17T10:42:51Z</time>
  </trkpt>
  <trkpt lat="46.772776" lon="23.519766">
   <ele>462.4</ele>
   <time>2021-08-17T10:42:53Z</time>
  </trkpt>
  <trkpt lat="46.772752" lon="23.519754">
   <ele>463.4</ele>
   <time>2021-08-17T10:42:54Z</time>
  </trkpt>
  <trkpt lat="46.772663" lon="23.519729">
   <ele>464.8</ele>
   <time>2021-08-17T10:42:58Z</time>
  </trkpt>
  <trkpt lat="46.772618" lon="23.519731">
   <ele>465.2</ele>
   <time>2021-08-17T10:43:00Z</time>
  </trkpt>
  <trkpt lat="46.772554" lon="23.519744">
   <ele>466.2</ele>
   <time>2021-08-17T10:43:03Z</time>
  </trkpt>
  <trkpt lat="46.772512" lon="23.519755">
   <ele>466</ele>
   <time>2021-08-17T10:43:05Z</time>
  </trkpt>
  <trkpt lat="46.772490" lon="23.519756">
   <ele>466.2</ele>
   <time>2021-08-17T10:43:06Z</time>
  </trkpt>
  <trkpt lat="46.772471" lon="23.519756">
   <ele>466.2</ele>
   <time>2021-08-17T10:43:07Z</time>
  </trkpt>
  <trkpt lat="46.772365" lon="23.519734">
   <ele>467.6</ele>
   <time>2021-08-17T10:43:12Z</time>
  </trkpt>
  <trkpt lat="46.772330" lon="23.519736">
   <ele>467.7</ele>
   <time>2021-08-17T10:43:14Z</time>
  </trkpt>
  <trkpt lat="46.772250" lon="23.519734">
   <ele>468.2</ele>
   <time>2021-08-17T10:43:18Z</time>
  </trkpt>
  <trkpt lat="46.772218" lon="23.519727">
   <ele>468.4</ele>
   <time>2021-08-17T10:43:20Z</time>
  </trkpt>
  <trkpt lat="46.772201" lon="23.519716">
   <ele>468.6</ele>
   <time>2021-08-17T10:43:21Z</time>
  </trkpt>
  <trkpt lat="46.772078" lon="23.519667">
   <ele>470.4</ele>
   <time>2021-08-17T10:43:27Z</time>
  </trkpt>
  <trkpt lat="46.772056" lon="23.519657">
   <ele>470.4</ele>
   <time>2021-08-17T10:43:28Z</time>
  </trkpt>
  <trkpt lat="46.772019" lon="23.519634">
   <ele>470.7</ele>
   <time>2021-08-17T10:43:30Z</time>
  </trkpt>
  <trkpt lat="46.771947" lon="23.519598">
   <ele>471.6</ele>
   <time>2021-08-17T10:43:34Z</time>
  </trkpt>
  <trkpt lat="46.771912" lon="23.519577">
   <ele>472.2</ele>
   <time>2021-08-17T10:43:36Z</time>
  </trkpt>
  <trkpt lat="46.771894" lon="23.519571">
   <ele>472.3</ele>
   <time>2021-08-17T10:43:37Z</time>
  </trkpt>
  <trkpt lat="46.771826" lon="23.519533">
   <ele>473</ele>
   <time>2021-08-17T10:43:41Z</time>
  </trkpt>
  <trkpt lat="46.771797" lon="23.519515">
   <ele>473.1</ele>
   <time>2021-08-17T10:43:43Z</time>
  </trkpt>
  <trkpt lat="46.771715" lon="23.519495">
   <ele>474</ele>
   <time>2021-08-17T10:43:48Z</time>
  </trkpt>
  <trkpt lat="46.771697" lon="23.519491">
   <ele>474.2</ele>
   <time>2021-08-17T10:43:50Z</time>
  </trkpt>
  <trkpt lat="46.771665" lon="23.519481">
   <ele>474.4</ele>
   <time>2021-08-17T10:43:53Z</time>
  </trkpt>
  <trkpt lat="46.771604" lon="23.519459">
   <ele>474.8</ele>
   <time>2021-08-17T10:43:57Z</time>
  </trkpt>
  <trkpt lat="46.771585" lon="23.519452">
   <ele>475.3</ele>
   <time>2021-08-17T10:43:58Z</time>
  </trkpt>
  <trkpt lat="46.771485" lon="23.519439">
   <ele>475.8</ele>
   <time>2021-08-17T10:44:03Z</time>
  </trkpt>
  <trkpt lat="46.771432" lon="23.519424">
   <ele>476.1</ele>
   <time>2021-08-17T10:44:06Z</time>
  </trkpt>
  <trkpt lat="46.771389" lon="23.519419">
   <ele>476.3</ele>
   <time>2021-08-17T10:44:08Z</time>
  </trkpt>
  <trkpt lat="46.771343" lon="23.519407">
   <ele>477</ele>
   <time>2021-08-17T10:44:10Z</time>
  </trkpt>
  <trkpt lat="46.771269" lon="23.519388">
   <ele>477.4</ele>
   <time>2021-08-17T10:44:13Z</time>
  </trkpt>
  <trkpt lat="46.771150" lon="23.519373">
   <ele>478.6</ele>
   <time>2021-08-17T10:44:17Z</time>
  </trkpt>
  <trkpt lat="46.771077" lon="23.519390">
   <ele>480</ele>
   <time>2021-08-17T10:44:19Z</time>
  </trkpt>
  <trkpt lat="46.770987" lon="23.519438">
   <ele>480.9</ele>
   <time>2021-08-17T10:44:22Z</time>
  </trkpt>
  <trkpt lat="46.770940" lon="23.519482">
   <ele>480.9</ele>
   <time>2021-08-17T10:44:24Z</time>
  </trkpt>
  <trkpt lat="46.770871" lon="23.519558">
   <ele>481.1</ele>
   <time>2021-08-17T10:44:27Z</time>
  </trkpt>
  <trkpt lat="46.770847" lon="23.519596">
   <ele>481</ele>
   <time>2021-08-17T10:44:28Z</time>
  </trkpt>
  <trkpt lat="46.770795" lon="23.519670">
   <ele>480.5</ele>
   <time>2021-08-17T10:44:30Z</time>
  </trkpt>
  <trkpt lat="46.770709" lon="23.519830">
   <ele>480.5</ele>
   <time>2021-08-17T10:44:33Z</time>
  </trkpt>
  <trkpt lat="46.770635" lon="23.520031">
   <ele>479.5</ele>
   <time>2021-08-17T10:44:36Z</time>
  </trkpt>
  <trkpt lat="46.770589" lon="23.520231">
   <ele>477.6</ele>
   <time>2021-08-17T10:44:39Z</time>
  </trkpt>
  <trkpt lat="46.770582" lon="23.520308">
   <ele>477.6</ele>
   <time>2021-08-17T10:44:40Z</time>
  </trkpt>
  <trkpt lat="46.770576" lon="23.520449">
   <ele>475.7</ele>
   <time>2021-08-17T10:44:42Z</time>
  </trkpt>
  <trkpt lat="46.770569" lon="23.520509">
   <ele>475.2</ele>
   <time>2021-08-17T10:44:43Z</time>
  </trkpt>
  <trkpt lat="46.770526" lon="23.520629">
   <ele>474.6</ele>
   <time>2021-08-17T10:44:46Z</time>
  </trkpt>
  <trkpt lat="46.770458" lon="23.520816">
   <ele>474.1</ele>
   <time>2021-08-17T10:44:52Z</time>
  </trkpt>
  <trkpt lat="46.770449" lon="23.520851">
   <ele>473.7</ele>
   <time>2021-08-17T10:44:53Z</time>
  </trkpt>
  <trkpt lat="46.770400" lon="23.521050">
   <ele>473</ele>
   <time>2021-08-17T10:44:59Z</time>
  </trkpt>
  <trkpt lat="46.770390" lon="23.521083">
   <ele>473</ele>
   <time>2021-08-17T10:45:00Z</time>
  </trkpt>
  <trkpt lat="46.770360" lon="23.521153">
   <ele>472.9</ele>
   <time>2021-08-17T10:45:03Z</time>
  </trkpt>
  <trkpt lat="46.770336" lon="23.521168">
   <ele>473.3</ele>
   <time>2021-08-17T10:45:05Z</time>
  </trkpt>
  <trkpt lat="46.770306" lon="23.521214">
   <ele>473.2</ele>
   <time>2021-08-17T10:45:09Z</time>
  </trkpt>
  <trkpt lat="46.770299" lon="23.521251">
   <ele>473.2</ele>
   <time>2021-08-17T10:45:11Z</time>
  </trkpt>
  <trkpt lat="46.770286" lon="23.521280">
   <ele>473.4</ele>
   <time>2021-08-17T10:45:13Z</time>
  </trkpt>
  <trkpt lat="46.770270" lon="23.521317">
   <ele>473</ele>
   <time>2021-08-17T10:45:15Z</time>
  </trkpt>
  <trkpt lat="46.770240" lon="23.521376">
   <ele>473.2</ele>
   <time>2021-08-17T10:45:18Z</time>
  </trkpt>
  <trkpt lat="46.770189" lon="23.521511">
   <ele>473.1</ele>
   <time>2021-08-17T10:45:24Z</time>
  </trkpt>
  <trkpt lat="46.770179" lon="23.521528">
   <ele>472.8</ele>
   <time>2021-08-17T10:45:25Z</time>
  </trkpt>
  <trkpt lat="46.770150" lon="23.521576">
   <ele>473</ele>
   <time>2021-08-17T10:45:28Z</time>
  </trkpt>
  <trkpt lat="46.770113" lon="23.521585">
   <ele>473.8</ele>
   <time>2021-08-17T10:45:31Z</time>
  </trkpt>
  <trkpt lat="46.770036" lon="23.521575">
   <ele>474.6</ele>
   <time>2021-08-17T10:45:36Z</time>
  </trkpt>
  <trkpt lat="46.770017" lon="23.521572">
   <ele>475</ele>
   <time>2021-08-17T10:45:37Z</time>
  </trkpt>
  <trkpt lat="46.770001" lon="23.521571">
   <ele>475</ele>
   <time>2021-08-17T10:45:38Z</time>
  </trkpt>
  <trkpt lat="46.769914" lon="23.521552">
   <ele>476.7</ele>
   <time>2021-08-17T10:45:43Z</time>
  </trkpt>
  <trkpt lat="46.769894" lon="23.521552">
   <ele>477</ele>
   <time>2021-08-17T10:45:44Z</time>
  </trkpt>
  <trkpt lat="46.769784" lon="23.521560">
   <ele>478.2</ele>
   <time>2021-08-17T10:45:50Z</time>
  </trkpt>
  <trkpt lat="46.769746" lon="23.521556">
   <ele>478.7</ele>
   <time>2021-08-17T10:45:52Z</time>
  </trkpt>
  <trkpt lat="46.769727" lon="23.521554">
   <ele>479</ele>
   <time>2021-08-17T10:45:53Z</time>
  </trkpt>
  <trkpt lat="46.769613" lon="23.521536">
   <ele>479.9</ele>
   <time>2021-08-17T10:45:59Z</time>
  </trkpt>
  <trkpt lat="46.769552" lon="23.521521">
   <ele>480.2</ele>
   <time>2021-08-17T10:46:02Z</time>
  </trkpt>
  <trkpt lat="46.769433" lon="23.521492">
   <ele>480.9</ele>
   <time>2021-08-17T10:46:08Z</time>
  </trkpt>
  <trkpt lat="46.769395" lon="23.521490">
   <ele>480.9</ele>
   <time>2021-08-17T10:46:10Z</time>
  </trkpt>
  <trkpt lat="46.769282" lon="23.521488">
   <ele>481</ele>
   <time>2021-08-17T10:46:16Z</time>
  </trkpt>
  <trkpt lat="46.769165" lon="23.521452">
   <ele>481.2</ele>
   <time>2021-08-17T10:46:22Z</time>
  </trkpt>
  <trkpt lat="46.769142" lon="23.521452">
   <ele>481.3</ele>
   <time>2021-08-17T10:46:23Z</time>
  </trkpt>
  <trkpt lat="46.769076" lon="23.521447">
   <ele>481.8</ele>
   <time>2021-08-17T10:46:26Z</time>
  </trkpt>
  <trkpt lat="46.768986" lon="23.521434">
   <ele>482.6</ele>
   <time>2021-08-17T10:46:31Z</time>
  </trkpt>
  <trkpt lat="46.768918" lon="23.521426">
   <ele>483.2</ele>
   <time>2021-08-17T10:46:35Z</time>
  </trkpt>
  <trkpt lat="46.768856" lon="23.521410">
   <ele>483.8</ele>
   <time>2021-08-17T10:46:39Z</time>
  </trkpt>
  <trkpt lat="46.768760" lon="23.521374">
   <ele>484.9</ele>
   <time>2021-08-17T10:46:45Z</time>
  </trkpt>
  <trkpt lat="46.768714" lon="23.521351">
   <ele>485.4</ele>
   <time>2021-08-17T10:46:48Z</time>
  </trkpt>
  <trkpt lat="46.768639" lon="23.521322">
   <ele>486.3</ele>
   <time>2021-08-17T10:46:52Z</time>
  </trkpt>
  <trkpt lat="46.768600" lon="23.521307">
   <ele>486.7</ele>
   <time>2021-08-17T10:46:54Z</time>
  </trkpt>
  <trkpt lat="46.768582" lon="23.521301">
   <ele>486.9</ele>
   <time>2021-08-17T10:46:55Z</time>
  </trkpt>
  <trkpt lat="46.768562" lon="23.521298">
   <ele>487.1</ele>
   <time>2021-08-17T10:46:56Z</time>
  </trkpt>
  <trkpt lat="46.768462" lon="23.521291">
   <ele>488.1</ele>
   <time>2021-08-17T10:47:01Z</time>
  </trkpt>
  <trkpt lat="46.768430" lon="23.521284">
   <ele>488.4</ele>
   <time>2021-08-17T10:47:03Z</time>
  </trkpt>
  <trkpt lat="46.768349" lon="23.521279">
   <ele>489</ele>
   <time>2021-08-17T10:47:08Z</time>
  </trkpt>
  <trkpt lat="46.768313" lon="23.521270">
   <ele>489.3</ele>
   <time>2021-08-17T10:47:10Z</time>
  </trkpt>
  <trkpt lat="46.768254" lon="23.521233">
   <ele>489.9</ele>
   <time>2021-08-17T10:47:14Z</time>
  </trkpt>
  <trkpt lat="46.768209" lon="23.521192">
   <ele>490.3</ele>
   <time>2021-08-17T10:47:17Z</time>
  </trkpt>
  <trkpt lat="46.768145" lon="23.521135">
   <ele>490.9</ele>
   <time>2021-08-17T10:47:21Z</time>
  </trkpt>
  <trkpt lat="46.768117" lon="23.521103">
   <ele>491.1</ele>
   <time>2021-08-17T10:47:23Z</time>
  </trkpt>
  <trkpt lat="46.768089" lon="23.521072">
   <ele>491.3</ele>
   <time>2021-08-17T10:47:25Z</time>
  </trkpt>
  <trkpt lat="46.768003" lon="23.521006">
   <ele>491.9</ele>
   <time>2021-08-17T10:47:30Z</time>
  </trkpt>
  <trkpt lat="46.767934" lon="23.520903">
   <ele>492.4</ele>
   <time>2021-08-17T10:47:35Z</time>
  </trkpt>
  <trkpt lat="46.767924" lon="23.520876">
   <ele>492.6</ele>
   <time>2021-08-17T10:47:36Z</time>
  </trkpt>
  <trkpt lat="46.767915" lon="23.520848">
   <ele>492.7</ele>
   <time>2021-08-17T10:47:37Z</time>
  </trkpt>
  <trkpt lat="46.767878" lon="23.520746">
   <ele>493.1</ele>
   <time>2021-08-17T10:47:41Z</time>
  </trkpt>
  <trkpt lat="46.767845" lon="23.520661">
   <ele>493.5</ele>
   <time>2021-08-17T10:47:45Z</time>
  </trkpt>
  <trkpt lat="46.767823" lon="23.520599">
   <ele>493.7</ele>
   <time>2021-08-17T10:47:48Z</time>
  </trkpt>
  <trkpt lat="46.767789" lon="23.520537">
   <ele>494</ele>
   <time>2021-08-17T10:47:51Z</time>
  </trkpt>
  <trkpt lat="46.767783" lon="23.520514">
   <ele>494.1</ele>
   <time>2021-08-17T10:47:52Z</time>
  </trkpt>
  <trkpt lat="46.767737" lon="23.520405">
   <ele>494.6</ele>
   <time>2021-08-17T10:47:56Z</time>
  </trkpt>
  <trkpt lat="46.767719" lon="23.520352">
   <ele>494.9</ele>
   <time>2021-08-17T10:47:58Z</time>
  </trkpt>
  <trkpt lat="46.767696" lon="23.520269">
   <ele>495.5</ele>
   <time>2021-08-17T10:48:01Z</time>
  </trkpt>
  <trkpt lat="46.767665" lon="23.520207">
   <ele>495.4</ele>
   <time>2021-08-17T10:48:05Z</time>
  </trkpt>
  <trkpt lat="46.767666" lon="23.520201">
   <ele>495.4</ele>
   <time>2021-08-17T10:48:06Z</time>
  </trkpt>
  <trkpt lat="46.767668" lon="23.520198">
   <ele>495.4</ele>
   <time>2021-08-17T10:48:09Z</time>
  </trkpt>
  <trkpt lat="46.767547" lon="23.520305">
   <ele>495.5</ele>
   <time>2021-08-17T10:50:27Z</time>
  </trkpt>
  <trkpt lat="46.767543" lon="23.520317">
   <ele>495.5</ele>
   <time>2021-08-17T10:50:28Z</time>
  </trkpt>
  <trkpt lat="46.767527" lon="23.520377">
   <ele>495.5</ele>
   <time>2021-08-17T10:50:32Z</time>
  </trkpt>
  <trkpt lat="46.767513" lon="23.520453">
   <ele>495.6</ele>
   <time>2021-08-17T10:50:37Z</time>
  </trkpt>
  <trkpt lat="46.767493" lon="23.520534">
   <ele>495.7</ele>
   <time>2021-08-17T10:50:43Z</time>
  </trkpt>
  <trkpt lat="46.767461" lon="23.520642">
   <ele>495.9</ele>
   <time>2021-08-17T10:50:48Z</time>
  </trkpt>
  <trkpt lat="46.767448" lon="23.520697">
   <ele>495.9</ele>
   <time>2021-08-17T10:50:50Z</time>
  </trkpt>
  <trkpt lat="46.767435" lon="23.520759">
   <ele>496</ele>
   <time>2021-08-17T10:50:52Z</time>
  </trkpt>
  <trkpt lat="46.767420" lon="23.520913">
   <ele>496.2</ele>
   <time>2021-08-17T10:50:57Z</time>
  </trkpt>
  <trkpt lat="46.767415" lon="23.521052">
   <ele>496.4</ele>
   <time>2021-08-17T10:51:01Z</time>
  </trkpt>
  <trkpt lat="46.767407" lon="23.521145">
   <ele>496.5</ele>
   <time>2021-08-17T10:51:04Z</time>
  </trkpt>
  <trkpt lat="46.767401" lon="23.521261">
   <ele>496.7</ele>
   <time>2021-08-17T10:51:08Z</time>
  </trkpt>
  <trkpt lat="46.767380" lon="23.521425">
   <ele>496.9</ele>
   <time>2021-08-17T10:51:13Z</time>
  </trkpt>
  <trkpt lat="46.767380" lon="23.521531">
   <ele>497.1</ele>
   <time>2021-08-17T10:51:16Z</time>
  </trkpt>
  <trkpt lat="46.767378" lon="23.521670">
   <ele>497.4</ele>
   <time>2021-08-17T10:51:20Z</time>
  </trkpt>
  <trkpt lat="46.767390" lon="23.521804">
   <ele>497.6</ele>
   <time>2021-08-17T10:51:24Z</time>
  </trkpt>
  <trkpt lat="46.767399" lon="23.521916">
   <ele>497.7</ele>
   <time>2021-08-17T10:51:27Z</time>
  </trkpt>
  <trkpt lat="46.767411" lon="23.522107">
   <ele>497.6</ele>
   <time>2021-08-17T10:51:33Z</time>
  </trkpt>
  <trkpt lat="46.767414" lon="23.522141">
   <ele>497.5</ele>
   <time>2021-08-17T10:51:34Z</time>
  </trkpt>
  <trkpt lat="46.767422" lon="23.522260">
   <ele>497.2</ele>
   <time>2021-08-17T10:51:37Z</time>
  </trkpt>
  <trkpt lat="46.767428" lon="23.522360">
   <ele>496.9</ele>
   <time>2021-08-17T10:51:40Z</time>
  </trkpt>
  <trkpt lat="46.767432" lon="23.522389">
   <ele>496.8</ele>
   <time>2021-08-17T10:51:41Z</time>
  </trkpt>
  <trkpt lat="46.767499" lon="23.522517">
   <ele>496.3</ele>
   <time>2021-08-17T10:51:46Z</time>
  </trkpt>
  <trkpt lat="46.767535" lon="23.522548">
   <ele>496.1</ele>
   <time>2021-08-17T10:51:48Z</time>
  </trkpt>
  <trkpt lat="46.767631" lon="23.522629">
   <ele>495.5</ele>
   <time>2021-08-17T10:51:52Z</time>
  </trkpt>
  <trkpt lat="46.767665" lon="23.522677">
   <ele>495.2</ele>
   <time>2021-08-17T10:51:57Z</time>
  </trkpt>
  <trkpt lat="46.767698" lon="23.522725">
   <ele>494.8</ele>
   <time>2021-08-17T10:52:00Z</time>
  </trkpt>
  <trkpt lat="46.767731" lon="23.522774">
   <ele>494.5</ele>
   <time>2021-08-17T10:52:02Z</time>
  </trkpt>
  <trkpt lat="46.767782" lon="23.522846">
   <ele>493.9</ele>
   <time>2021-08-17T10:52:16Z</time>
  </trkpt>
  <trkpt lat="46.767798" lon="23.522870">
   <ele>493.7</ele>
   <time>2021-08-17T10:52:17Z</time>
  </trkpt>
  <trkpt lat="46.767866" lon="23.522961">
   <ele>493</ele>
   <time>2021-08-17T10:52:19Z</time>
  </trkpt>
  <trkpt lat="46.767923" lon="23.523042">
   <ele>492.4</ele>
   <time>2021-08-17T10:52:21Z</time>
  </trkpt>
  <trkpt lat="46.767982" lon="23.523137">
   <ele>491.8</ele>
   <time>2021-08-17T10:52:23Z</time>
  </trkpt>
  <trkpt lat="46.768043" lon="23.523220">
   <ele>491.3</ele>
   <time>2021-08-17T10:52:25Z</time>
  </trkpt>
  <trkpt lat="46.768145" lon="23.523343">
   <ele>490.6</ele>
   <time>2021-08-17T10:52:28Z</time>
  </trkpt>
  <trkpt lat="46.768180" lon="23.523390">
   <ele>490.3</ele>
   <time>2021-08-17T10:52:29Z</time>
  </trkpt>
  <trkpt lat="46.768275" lon="23.523527">
   <ele>489.8</ele>
   <time>2021-08-17T10:52:32Z</time>
  </trkpt>
  <trkpt lat="46.768333" lon="23.523600">
   <ele>489.5</ele>
   <time>2021-08-17T10:52:34Z</time>
  </trkpt>
  <trkpt lat="46.768362" lon="23.523626">
   <ele>489.4</ele>
   <time>2021-08-17T10:52:35Z</time>
  </trkpt>
  <trkpt lat="46.768395" lon="23.523648">
   <ele>489.3</ele>
   <time>2021-08-17T10:52:36Z</time>
  </trkpt>
  <trkpt lat="46.768464" lon="23.523691">
   <ele>489</ele>
   <time>2021-08-17T10:52:38Z</time>
  </trkpt>
  <trkpt lat="46.768499" lon="23.523714">
   <ele>488.8</ele>
   <time>2021-08-17T10:52:39Z</time>
  </trkpt>
  <trkpt lat="46.768571" lon="23.523760">
   <ele>488.6</ele>
   <time>2021-08-17T10:52:41Z</time>
  </trkpt>
  <trkpt lat="46.768602" lon="23.523791">
   <ele>488.5</ele>
   <time>2021-08-17T10:52:42Z</time>
  </trkpt>
  <trkpt lat="46.768632" lon="23.523819">
   <ele>488.4</ele>
   <time>2021-08-17T10:52:43Z</time>
  </trkpt>
  <trkpt lat="46.768783" lon="23.523947">
   <ele>488</ele>
   <time>2021-08-17T10:52:48Z</time>
  </trkpt>
  <trkpt lat="46.768842" lon="23.524013">
   <ele>487.9</ele>
   <time>2021-08-17T10:52:50Z</time>
  </trkpt>
  <trkpt lat="46.768966" lon="23.524191">
   <ele>487.5</ele>
   <time>2021-08-17T10:52:55Z</time>
  </trkpt>
  <trkpt lat="46.769079" lon="23.524369">
   <ele>487.3</ele>
   <time>2021-08-17T10:53:00Z</time>
  </trkpt>
  <trkpt lat="46.769105" lon="23.524397">
   <ele>487.2</ele>
   <time>2021-08-17T10:53:01Z</time>
  </trkpt>
  <trkpt lat="46.769256" lon="23.524553">
   <ele>487.3</ele>
   <time>2021-08-17T10:53:07Z</time>
  </trkpt>
  <trkpt lat="46.769277" lon="23.524573">
   <ele>487.3</ele>
   <time>2021-08-17T10:53:08Z</time>
  </trkpt>
  <trkpt lat="46.769310" lon="23.524603">
   <ele>487.4</ele>
   <time>2021-08-17T10:53:10Z</time>
  </trkpt>
  <trkpt lat="46.769327" lon="23.524608">
   <ele>487.4</ele>
   <time>2021-08-17T10:53:12Z</time>
  </trkpt>
  <trkpt lat="46.769332" lon="23.524610">
   <ele>487.4</ele>
   <time>2021-08-17T10:53:13Z</time>
  </trkpt>
  <trkpt lat="46.769338" lon="23.524619">
   <ele>487.4</ele>
   <time>2021-08-17T10:53:15Z</time>
  </trkpt>
  <trkpt lat="46.769469" lon="23.524775">
   <ele>487.8</ele>
   <time>2021-08-17T10:53:28Z</time>
  </trkpt>
  <trkpt lat="46.769507" lon="23.524813">
   <ele>488</ele>
   <time>2021-08-17T10:53:30Z</time>
  </trkpt>
  <trkpt lat="46.769611" lon="23.524953">
   <ele>488.4</ele>
   <time>2021-08-17T10:53:36Z</time>
  </trkpt>
  <trkpt lat="46.769623" lon="23.524985">
   <ele>488.5</ele>
   <time>2021-08-17T10:53:37Z</time>
  </trkpt>
  <trkpt lat="46.769684" lon="23.525174">
   <ele>489</ele>
   <time>2021-08-17T10:53:43Z</time>
  </trkpt>
  <trkpt lat="46.769690" lon="23.525284">
   <ele>489.2</ele>
   <time>2021-08-17T10:53:46Z</time>
  </trkpt>
  <trkpt lat="46.769708" lon="23.525346">
   <ele>489.4</ele>
   <time>2021-08-17T10:53:48Z</time>
  </trkpt>
  <trkpt lat="46.769817" lon="23.525500">
   <ele>489.9</ele>
   <time>2021-08-17T10:53:54Z</time>
  </trkpt>
  <trkpt lat="46.769920" lon="23.525648">
   <ele>490.3</ele>
   <time>2021-08-17T10:54:00Z</time>
  </trkpt>
  <trkpt lat="46.769959" lon="23.525693">
   <ele>490.5</ele>
   <time>2021-08-17T10:54:02Z</time>
  </trkpt>
  <trkpt lat="46.770042" lon="23.525796">
   <ele>491</ele>
   <time>2021-08-17T10:54:07Z</time>
  </trkpt>
  <trkpt lat="46.770091" lon="23.525874">
   <ele>491.3</ele>
   <time>2021-08-17T10:54:10Z</time>
  </trkpt>
  <trkpt lat="46.770128" lon="23.525959">
   <ele>491.7</ele>
   <time>2021-08-17T10:54:13Z</time>
  </trkpt>
  <trkpt lat="46.770156" lon="23.526049">
   <ele>492.1</ele>
   <time>2021-08-17T10:54:16Z</time>
  </trkpt>
  <trkpt lat="46.770165" lon="23.526081">
   <ele>492.3</ele>
   <time>2021-08-17T10:54:17Z</time>
  </trkpt>
  <trkpt lat="46.770173" lon="23.526114">
   <ele>492.4</ele>
   <time>2021-08-17T10:54:18Z</time>
  </trkpt>
  <trkpt lat="46.770182" lon="23.526146">
   <ele>492.5</ele>
   <time>2021-08-17T10:54:19Z</time>
  </trkpt>
  <trkpt lat="46.770190" lon="23.526179">
   <ele>492.6</ele>
   <time>2021-08-17T10:54:20Z</time>
  </trkpt>
  <trkpt lat="46.770211" lon="23.526275">
   <ele>492.9</ele>
   <time>2021-08-17T10:54:23Z</time>
  </trkpt>
  <trkpt lat="46.770230" lon="23.526338">
   <ele>493.1</ele>
   <time>2021-08-17T10:54:25Z</time>
  </trkpt>
  <trkpt lat="46.770290" lon="23.526526">
   <ele>493.3</ele>
   <time>2021-08-17T10:54:31Z</time>
  </trkpt>
  <trkpt lat="46.770312" lon="23.526588">
   <ele>493.2</ele>
   <time>2021-08-17T10:54:33Z</time>
  </trkpt>
  <trkpt lat="46.770390" lon="23.526781">
   <ele>492.3</ele>
   <time>2021-08-17T10:54:38Z</time>
  </trkpt>
  <trkpt lat="46.770418" lon="23.526867">
   <ele>491.8</ele>
   <time>2021-08-17T10:54:40Z</time>
  </trkpt>
  <trkpt lat="46.770472" lon="23.527070">
   <ele>490.2</ele>
   <time>2021-08-17T10:54:45Z</time>
  </trkpt>
  <trkpt lat="46.770479" lon="23.527120">
   <ele>489.8</ele>
   <time>2021-08-17T10:54:46Z</time>
  </trkpt>
  <trkpt lat="46.770500" lon="23.527219">
   <ele>489</ele>
   <time>2021-08-17T10:54:48Z</time>
  </trkpt>
  <trkpt lat="46.770533" lon="23.527422">
   <ele>487.5</ele>
   <time>2021-08-17T10:54:52Z</time>
  </trkpt>
  <trkpt lat="46.770538" lon="23.527512">
   <ele>486.9</ele>
   <time>2021-08-17T10:54:54Z</time>
  </trkpt>
  <trkpt lat="46.770531" lon="23.527695">
   <ele>485.7</ele>
   <time>2021-08-17T10:54:58Z</time>
  </trkpt>
  <trkpt lat="46.770532" lon="23.527750">
   <ele>485.4</ele>
   <time>2021-08-17T10:54:59Z</time>
  </trkpt>
  <trkpt lat="46.770532" lon="23.527811">
   <ele>485.1</ele>
   <time>2021-08-17T10:55:00Z</time>
  </trkpt>
  <trkpt lat="46.770532" lon="23.527875">
   <ele>484.9</ele>
   <time>2021-08-17T10:55:01Z</time>
  </trkpt>
  <trkpt lat="46.770525" lon="23.528079">
   <ele>484.1</ele>
   <time>2021-08-17T10:55:04Z</time>
  </trkpt>
  <trkpt lat="46.770499" lon="23.528214">
   <ele>483.7</ele>
   <time>2021-08-17T10:55:06Z</time>
  </trkpt>
  <trkpt lat="46.770416" lon="23.528478">
   <ele>483.1</ele>
   <time>2021-08-17T10:55:10Z</time>
  </trkpt>
  <trkpt lat="46.770364" lon="23.528589">
   <ele>483.1</ele>
   <time>2021-08-17T10:55:12Z</time>
  </trkpt>
  <trkpt lat="46.770294" lon="23.528713">
   <ele>483.2</ele>
   <time>2021-08-17T10:55:15Z</time>
  </trkpt>
  <trkpt lat="46.770265" lon="23.528778">
   <ele>483.3</ele>
   <time>2021-08-17T10:55:17Z</time>
  </trkpt>
  <trkpt lat="46.770224" lon="23.528917">
   <ele>483.4</ele>
   <time>2021-08-17T10:55:22Z</time>
  </trkpt>
  <trkpt lat="46.770198" lon="23.528961">
   <ele>483.4</ele>
   <time>2021-08-17T10:55:24Z</time>
  </trkpt>
  <trkpt lat="46.770164" lon="23.529128">
   <ele>483.2</ele>
   <time>2021-08-17T10:55:29Z</time>
  </trkpt>
  <trkpt lat="46.770154" lon="23.529213">
   <ele>483.1</ele>
   <time>2021-08-17T10:55:31Z</time>
  </trkpt>
  <trkpt lat="46.770127" lon="23.529445">
   <ele>483</ele>
   <time>2021-08-17T10:55:37Z</time>
  </trkpt>
  <trkpt lat="46.770122" lon="23.529478">
   <ele>483</ele>
   <time>2021-08-17T10:55:38Z</time>
  </trkpt>
  <trkpt lat="46.770092" lon="23.529658">
   <ele>483.2</ele>
   <time>2021-08-17T10:55:44Z</time>
  </trkpt>
  <trkpt lat="46.770089" lon="23.529692">
   <ele>483.3</ele>
   <time>2021-08-17T10:55:45Z</time>
  </trkpt>
  <trkpt lat="46.770046" lon="23.529876">
   <ele>483.9</ele>
   <time>2021-08-17T10:55:51Z</time>
  </trkpt>
  <trkpt lat="46.770037" lon="23.529903">
   <ele>484</ele>
   <time>2021-08-17T10:55:52Z</time>
  </trkpt>
  <trkpt lat="46.769974" lon="23.530058">
   <ele>484.8</ele>
   <time>2021-08-17T10:55:58Z</time>
  </trkpt>
  <trkpt lat="46.769953" lon="23.530097">
   <ele>485</ele>
   <time>2021-08-17T10:56:00Z</time>
  </trkpt>
  <trkpt lat="46.769911" lon="23.530240">
   <ele>485.7</ele>
   <time>2021-08-17T10:56:06Z</time>
  </trkpt>
  <trkpt lat="46.769902" lon="23.530263">
   <ele>485.9</ele>
   <time>2021-08-17T10:56:07Z</time>
  </trkpt>
  <trkpt lat="46.769885" lon="23.530313">
   <ele>486.2</ele>
   <time>2021-08-17T10:56:09Z</time>
  </trkpt>
  <trkpt lat="46.769843" lon="23.530479">
   <ele>487.3</ele>
   <time>2021-08-17T10:56:15Z</time>
  </trkpt>
  <trkpt lat="46.769833" lon="23.530509">
   <ele>487.5</ele>
   <time>2021-08-17T10:56:16Z</time>
  </trkpt>
  <trkpt lat="46.769782" lon="23.530654">
   <ele>488.6</ele>
   <time>2021-08-17T10:56:21Z</time>
  </trkpt>
  <trkpt lat="46.769771" lon="23.530683">
   <ele>488.8</ele>
   <time>2021-08-17T10:56:22Z</time>
  </trkpt>
  <trkpt lat="46.769749" lon="23.530737">
   <ele>489.2</ele>
   <time>2021-08-17T10:56:24Z</time>
  </trkpt>
  <trkpt lat="46.769738" lon="23.530758">
   <ele>489.4</ele>
   <time>2021-08-17T10:56:25Z</time>
  </trkpt>
  <trkpt lat="46.769726" lon="23.530775">
   <ele>489.5</ele>
   <time>2021-08-17T10:56:26Z</time>
  </trkpt>
  <trkpt lat="46.769716" lon="23.530789">
   <ele>489.6</ele>
   <time>2021-08-17T10:56:27Z</time>
  </trkpt>
  <trkpt lat="46.769697" lon="23.530822">
   <ele>489.9</ele>
   <time>2021-08-17T10:56:30Z</time>
  </trkpt>
  <trkpt lat="46.769674" lon="23.530895">
   <ele>490.2</ele>
   <time>2021-08-17T10:56:35Z</time>
  </trkpt>
  <trkpt lat="46.769666" lon="23.530912">
   <ele>490.3</ele>
   <time>2021-08-17T10:56:36Z</time>
  </trkpt>
  <trkpt lat="46.769655" lon="23.530917">
   <ele>490.4</ele>
   <time>2021-08-17T10:56:37Z</time>
  </trkpt>
  <trkpt lat="46.769611" lon="23.530964">
   <ele>490.7</ele>
   <time>2021-08-17T10:56:41Z</time>
  </trkpt>
  <trkpt lat="46.769571" lon="23.531041">
   <ele>490.9</ele>
   <time>2021-08-17T10:56:45Z</time>
  </trkpt>
  <trkpt lat="46.769535" lon="23.531104">
   <ele>491.1</ele>
   <time>2021-08-17T10:56:48Z</time>
  </trkpt>
  <trkpt lat="46.769497" lon="23.531197">
   <ele>491.2</ele>
   <time>2021-08-17T10:56:52Z</time>
  </trkpt>
  <trkpt lat="46.769485" lon="23.531219">
   <ele>491.2</ele>
   <time>2021-08-17T10:56:53Z</time>
  </trkpt>
  <trkpt lat="46.769455" lon="23.531288">
   <ele>491.3</ele>
   <time>2021-08-17T10:56:56Z</time>
  </trkpt>
  <trkpt lat="46.769445" lon="23.531459">
   <ele>491.3</ele>
   <time>2021-08-17T10:57:02Z</time>
  </trkpt>
  <trkpt lat="46.769480" lon="23.531659">
   <ele>491.3</ele>
   <time>2021-08-17T10:57:08Z</time>
  </trkpt>
  <trkpt lat="46.769491" lon="23.531688">
   <ele>491.4</ele>
   <time>2021-08-17T10:57:09Z</time>
  </trkpt>
  <trkpt lat="46.769504" lon="23.531716">
   <ele>491.4</ele>
   <time>2021-08-17T10:57:10Z</time>
  </trkpt>
  <trkpt lat="46.769544" lon="23.531789">
   <ele>491.5</ele>
   <time>2021-08-17T10:57:13Z</time>
  </trkpt>
  <trkpt lat="46.769568" lon="23.531838">
   <ele>491.6</ele>
   <time>2021-08-17T10:57:15Z</time>
  </trkpt>
  <trkpt lat="46.769638" lon="23.532005">
   <ele>491.7</ele>
   <time>2021-08-17T10:57:21Z</time>
  </trkpt>
  <trkpt lat="46.769658" lon="23.532066">
   <ele>491.8</ele>
   <time>2021-08-17T10:57:23Z</time>
  </trkpt>
  <trkpt lat="46.769744" lon="23.532238">
   <ele>491.7</ele>
   <time>2021-08-17T10:57:29Z</time>
  </trkpt>
  <trkpt lat="46.769759" lon="23.532269">
   <ele>491.7</ele>
   <time>2021-08-17T10:57:30Z</time>
  </trkpt>
  <trkpt lat="46.769798" lon="23.532372">
   <ele>491.6</ele>
   <time>2021-08-17T10:57:33Z</time>
  </trkpt>
  <trkpt lat="46.769836" lon="23.532462">
   <ele>491.5</ele>
   <time>2021-08-17T10:57:36Z</time>
  </trkpt>
  <trkpt lat="46.769900" lon="23.532631">
   <ele>491.4</ele>
   <time>2021-08-17T10:57:42Z</time>
  </trkpt>
  <trkpt lat="46.769998" lon="23.532911">
   <ele>491.7</ele>
   <time>2021-08-17T10:58:25Z</time>
  </trkpt>
  <trkpt lat="46.770010" lon="23.533083">
   <ele>492</ele>
   <time>2021-08-17T10:58:31Z</time>
  </trkpt>
  <trkpt lat="46.770011" lon="23.533106">
   <ele>492.1</ele>
   <time>2021-08-17T10:58:32Z</time>
  </trkpt>
  <trkpt lat="46.770016" lon="23.533180">
   <ele>492.4</ele>
   <time>2021-08-17T10:58:35Z</time>
  </trkpt>
  <trkpt lat="46.770021" lon="23.533230">
   <ele>492.6</ele>
   <time>2021-08-17T10:58:37Z</time>
  </trkpt>
  <trkpt lat="46.770025" lon="23.533256">
   <ele>492.7</ele>
   <time>2021-08-17T10:58:38Z</time>
  </trkpt>
  <trkpt lat="46.770028" lon="23.533281">
   <ele>492.8</ele>
   <time>2021-08-17T10:58:39Z</time>
  </trkpt>
  <trkpt lat="46.770029" lon="23.533331">
   <ele>493</ele>
   <time>2021-08-17T10:58:41Z</time>
  </trkpt>
  <trkpt lat="46.770028" lon="23.533373">
   <ele>493.1</ele>
   <time>2021-08-17T10:58:43Z</time>
  </trkpt>
  <trkpt lat="46.770039" lon="23.533424">
   <ele>493.3</ele>
   <time>2021-08-17T10:58:45Z</time>
  </trkpt>
  <trkpt lat="46.770041" lon="23.533448">
   <ele>493.4</ele>
   <time>2021-08-17T10:58:46Z</time>
  </trkpt>
  <trkpt lat="46.770033" lon="23.533520">
   <ele>493.7</ele>
   <time>2021-08-17T10:58:49Z</time>
  </trkpt>
  <trkpt lat="46.770031" lon="23.533569">
   <ele>493.8</ele>
   <time>2021-08-17T10:58:51Z</time>
  </trkpt>
  <trkpt lat="46.770033" lon="23.533689">
   <ele>494.2</ele>
   <time>2021-08-17T10:58:56Z</time>
  </trkpt>
  <trkpt lat="46.770021" lon="23.533763">
   <ele>494.4</ele>
   <time>2021-08-17T10:58:59Z</time>
  </trkpt>
  <trkpt lat="46.769986" lon="23.533876">
   <ele>494.7</ele>
   <time>2021-08-17T10:59:05Z</time>
  </trkpt>
  <trkpt lat="46.769980" lon="23.533893">
   <ele>494.8</ele>
   <time>2021-08-17T10:59:06Z</time>
  </trkpt>
  <trkpt lat="46.769937" lon="23.534026">
   <ele>495.1</ele>
   <time>2021-08-17T10:59:12Z</time>
  </trkpt>
  <trkpt lat="46.769915" lon="23.534073">
   <ele>495.2</ele>
   <time>2021-08-17T10:59:14Z</time>
  </trkpt>
  <trkpt lat="46.769873" lon="23.534180">
   <ele>495.3</ele>
   <time>2021-08-17T10:59:18Z</time>
  </trkpt>
  <trkpt lat="46.769854" lon="23.534285">
   <ele>495.4</ele>
   <time>2021-08-17T10:59:21Z</time>
  </trkpt>
  <trkpt lat="46.769795" lon="23.534453">
   <ele>495.4</ele>
   <time>2021-08-17T10:59:27Z</time>
  </trkpt>
  <trkpt lat="46.769782" lon="23.534479">
   <ele>495.4</ele>
   <time>2021-08-17T10:59:28Z</time>
  </trkpt>
  <trkpt lat="46.769719" lon="23.534676">
   <ele>495.1</ele>
   <time>2021-08-17T10:59:34Z</time>
  </trkpt>
  <trkpt lat="46.769667" lon="23.534900">
   <ele>494.5</ele>
   <time>2021-08-17T10:59:40Z</time>
  </trkpt>
  <trkpt lat="46.769597" lon="23.535098">
   <ele>493.8</ele>
   <time>2021-08-17T10:59:46Z</time>
  </trkpt>
  <trkpt lat="46.769521" lon="23.535311">
   <ele>493</ele>
   <time>2021-08-17T10:59:52Z</time>
  </trkpt>
  <trkpt lat="46.769511" lon="23.535334">
   <ele>492.9</ele>
   <time>2021-08-17T10:59:53Z</time>
  </trkpt>
  <trkpt lat="46.769504" lon="23.535373">
   <ele>492.8</ele>
   <time>2021-08-17T10:59:55Z</time>
  </trkpt>
  <trkpt lat="46.769502" lon="23.535458">
   <ele>492.5</ele>
   <time>2021-08-17T10:59:58Z</time>
  </trkpt>
  <trkpt lat="46.769498" lon="23.535489">
   <ele>492.4</ele>
   <time>2021-08-17T10:59:59Z</time>
  </trkpt>
  <trkpt lat="46.769443" lon="23.535637">
   <ele>492.1</ele>
   <time>2021-08-17T11:00:05Z</time>
  </trkpt>
  <trkpt lat="46.769433" lon="23.535656">
   <ele>492.2</ele>
   <time>2021-08-17T11:00:06Z</time>
  </trkpt>
  <trkpt lat="46.769423" lon="23.535673">
   <ele>492.2</ele>
   <time>2021-08-17T11:00:07Z</time>
  </trkpt>
  <trkpt lat="46.769385" lon="23.535750">
   <ele>492.3</ele>
   <time>2021-08-17T11:00:12Z</time>
  </trkpt>
  <trkpt lat="46.769371" lon="23.535752">
   <ele>492.4</ele>
   <time>2021-08-17T11:00:13Z</time>
  </trkpt>
  <trkpt lat="46.769360" lon="23.535744">
   <ele>492.4</ele>
   <time>2021-08-17T11:00:14Z</time>
  </trkpt>
  <trkpt lat="46.769334" lon="23.535713">
   <ele>492.6</ele>
   <time>2021-08-17T11:00:17Z</time>
  </trkpt>
  <trkpt lat="46.769316" lon="23.535705">
   <ele>492.7</ele>
   <time>2021-08-17T11:00:18Z</time>
  </trkpt>
  <trkpt lat="46.769277" lon="23.535730">
   <ele>492.9</ele>
   <time>2021-08-17T11:00:21Z</time>
  </trkpt>
  <trkpt lat="46.769273" lon="23.535739">
   <ele>492.9</ele>
   <time>2021-08-17T11:00:22Z</time>
  </trkpt>
  <trkpt lat="46.769269" lon="23.535740">
   <ele>492.9</ele>
   <time>2021-08-17T11:00:23Z</time>
  </trkpt>
  <trkpt lat="46.769258" lon="23.535744">
   <ele>493</ele>
   <time>2021-08-17T11:00:26Z</time>
  </trkpt>
  <trkpt lat="46.769221" lon="23.535916">
   <ele>493.5</ele>
   <time>2021-08-17T11:00:47Z</time>
  </trkpt>
  <trkpt lat="46.769219" lon="23.535929">
   <ele>493.6</ele>
   <time>2021-08-17T11:00:48Z</time>
  </trkpt>
  <trkpt lat="46.769215" lon="23.535941">
   <ele>493.6</ele>
   <time>2021-08-17T11:00:49Z</time>
  </trkpt>
  <trkpt lat="46.769201" lon="23.535969">
   <ele>493.7</ele>
   <time>2021-08-17T11:00:53Z</time>
  </trkpt>
  <trkpt lat="46.769105" lon="23.536101">
   <ele>494.4</ele>
   <time>2021-08-17T11:01:09Z</time>
  </trkpt>
  <trkpt lat="46.769086" lon="23.536128">
   <ele>494.6</ele>
   <time>2021-08-17T11:01:10Z</time>
  </trkpt>
  <trkpt lat="46.769042" lon="23.536176">
   <ele>495</ele>
   <time>2021-08-17T11:01:12Z</time>
  </trkpt>
  <trkpt lat="46.769021" lon="23.536199">
   <ele>495.2</ele>
   <time>2021-08-17T11:01:13Z</time>
  </trkpt>
  <trkpt lat="46.768929" lon="23.536284">
   <ele>496.2</ele>
   <time>2021-08-17T11:01:17Z</time>
  </trkpt>
  <trkpt lat="46.768887" lon="23.536316">
   <ele>496.7</ele>
   <time>2021-08-17T11:01:19Z</time>
  </trkpt>
  <trkpt lat="46.768792" lon="23.536396">
   <ele>497.9</ele>
   <time>2021-08-17T11:01:24Z</time>
  </trkpt>
  <trkpt lat="46.768776" lon="23.536407">
   <ele>498.1</ele>
   <time>2021-08-17T11:01:25Z</time>
  </trkpt>
  <trkpt lat="46.768684" lon="23.536472">
   <ele>499.3</ele>
   <time>2021-08-17T11:01:31Z</time>
  </trkpt>
  <trkpt lat="46.768631" lon="23.536516">
   <ele>500</ele>
   <time>2021-08-17T11:01:36Z</time>
  </trkpt>
  <trkpt lat="46.768606" lon="23.536534">
   <ele>500.3</ele>
   <time>2021-08-17T11:01:38Z</time>
  </trkpt>
  <trkpt lat="46.768562" lon="23.536568">
   <ele>500.8</ele>
   <time>2021-08-17T11:01:42Z</time>
  </trkpt>
  <trkpt lat="46.768550" lon="23.536579">
   <ele>501</ele>
   <time>2021-08-17T11:01:43Z</time>
  </trkpt>
  <trkpt lat="46.768516" lon="23.536618">
   <ele>501.4</ele>
   <time>2021-08-17T11:01:46Z</time>
  </trkpt>
  <trkpt lat="46.768468" lon="23.536662">
   <ele>501.8</ele>
   <time>2021-08-17T11:01:50Z</time>
  </trkpt>
  <trkpt lat="46.768458" lon="23.536674">
   <ele>501.9</ele>
   <time>2021-08-17T11:01:51Z</time>
  </trkpt>
  <trkpt lat="46.768424" lon="23.536702">
   <ele>502.2</ele>
   <time>2021-08-17T11:01:54Z</time>
  </trkpt>
  <trkpt lat="46.768394" lon="23.536728">
   <ele>502.3</ele>
   <time>2021-08-17T11:01:56Z</time>
  </trkpt>
  <trkpt lat="46.768365" lon="23.536756">
   <ele>502.5</ele>
   <time>2021-08-17T11:01:58Z</time>
  </trkpt>
  <trkpt lat="46.768353" lon="23.536773">
   <ele>502.5</ele>
   <time>2021-08-17T11:01:59Z</time>
  </trkpt>
  <trkpt lat="46.768316" lon="23.536822">
   <ele>502.7</ele>
   <time>2021-08-17T11:02:02Z</time>
  </trkpt>
  <trkpt lat="46.768247" lon="23.536956">
   <ele>502.6</ele>
   <time>2021-08-17T11:02:08Z</time>
  </trkpt>
  <trkpt lat="46.768238" lon="23.536982">
   <ele>502.5</ele>
   <time>2021-08-17T11:02:09Z</time>
  </trkpt>
  <trkpt lat="46.768229" lon="23.537039">
   <ele>502.4</ele>
   <time>2021-08-17T11:02:11Z</time>
  </trkpt>
  <trkpt lat="46.768233" lon="23.537193">
   <ele>501.7</ele>
   <time>2021-08-17T11:02:15Z</time>
  </trkpt>
  <trkpt lat="46.768273" lon="23.537368">
   <ele>500.7</ele>
   <time>2021-08-17T11:02:19Z</time>
  </trkpt>
  <trkpt lat="46.768310" lon="23.537447">
   <ele>500.2</ele>
   <time>2021-08-17T11:02:21Z</time>
  </trkpt>
  <trkpt lat="46.768350" lon="23.537523">
   <ele>499.7</ele>
   <time>2021-08-17T11:02:23Z</time>
  </trkpt>
  <trkpt lat="46.768453" lon="23.537728">
   <ele>498.1</ele>
   <time>2021-08-17T11:02:28Z</time>
  </trkpt>
  <trkpt lat="46.768514" lon="23.537859">
   <ele>496.9</ele>
   <time>2021-08-17T11:02:31Z</time>
  </trkpt>
  <trkpt lat="46.768635" lon="23.538079">
   <ele>494.3</ele>
   <time>2021-08-17T11:02:36Z</time>
  </trkpt>
  <trkpt lat="46.768688" lon="23.538148">
   <ele>493.2</ele>
   <time>2021-08-17T11:02:38Z</time>
  </trkpt>
  <trkpt lat="46.768713" lon="23.538180">
   <ele>492.7</ele>
   <time>2021-08-17T11:02:39Z</time>
  </trkpt>
  <trkpt lat="46.768786" lon="23.538275">
   <ele>491.1</ele>
   <time>2021-08-17T11:02:42Z</time>
  </trkpt>
  <trkpt lat="46.768805" lon="23.538295">
   <ele>490.7</ele>
   <time>2021-08-17T11:02:43Z</time>
  </trkpt>
  <trkpt lat="46.768857" lon="23.538376">
   <ele>489.3</ele>
   <time>2021-08-17T11:02:44Z</time>
  </trkpt>
  <trkpt lat="46.768894" lon="23.538445">
   <ele>488.3</ele>
   <time>2021-08-17T11:02:47Z</time>
  </trkpt>
  <trkpt lat="46.768931" lon="23.538514">
   <ele>487.3</ele>
   <time>2021-08-17T11:02:49Z</time>
  </trkpt>
  <trkpt lat="46.768968" lon="23.538584">
   <ele>486.4</ele>
   <time>2021-08-17T11:02:52Z</time>
  </trkpt>
  <trkpt lat="46.769024" lon="23.538687">
   <ele>485.2</ele>
   <time>2021-08-17T11:04:20Z</time>
  </trkpt>
  <trkpt lat="46.769042" lon="23.538722">
   <ele>484.9</ele>
   <time>2021-08-17T11:04:21Z</time>
  </trkpt>
  <trkpt lat="46.770755" lon="23.538755">
   <ele>463.3</ele>
   <time>2021-08-17T11:10:02Z</time>
  </trkpt>
  <trkpt lat="46.770762" lon="23.538811">
   <ele>463.8</ele>
   <time>2021-08-17T11:10:03Z</time>
  </trkpt>
  <trkpt lat="46.770768" lon="23.538868">
   <ele>464.3</ele>
   <time>2021-08-17T11:10:05Z</time>
  </trkpt>
  <trkpt lat="46.770775" lon="23.538924">
   <ele>464.7</ele>
   <time>2021-08-17T11:10:13Z</time>
  </trkpt>
  <trkpt lat="46.770782" lon="23.538980">
   <ele>465.1</ele>
   <time>2021-08-17T11:10:14Z</time>
  </trkpt>
  <trkpt lat="46.770813" lon="23.539219">
   <ele>462.8</ele>
   <time>2021-08-17T11:10:17Z</time>
  </trkpt>
  <trkpt lat="46.770834" lon="23.539386">
   <ele>461.2</ele>
   <time>2021-08-17T11:10:19Z</time>
  </trkpt>
  <trkpt lat="46.770843" lon="23.539558">
   <ele>459.9</ele>
   <time>2021-08-17T11:10:21Z</time>
  </trkpt>
  <trkpt lat="46.770850" lon="23.539706">
   <ele>459</ele>
   <time>2021-08-17T11:10:23Z</time>
  </trkpt>
  <trkpt lat="46.770860" lon="23.539774">
   <ele>458.6</ele>
   <time>2021-08-17T11:10:24Z</time>
  </trkpt>
  <trkpt lat="46.770880" lon="23.539930">
   <ele>457.7</ele>
   <time>2021-08-17T11:10:26Z</time>
  </trkpt>
  <trkpt lat="46.770906" lon="23.540188">
   <ele>456.6</ele>
   <time>2021-08-17T11:10:29Z</time>
  </trkpt>
  <trkpt lat="46.770930" lon="23.540456">
   <ele>456</ele>
   <time>2021-08-17T11:10:33Z</time>
  </trkpt>
  <trkpt lat="46.770938" lon="23.540497">
   <ele>455.9</ele>
   <time>2021-08-17T11:10:34Z</time>
  </trkpt>
  <trkpt lat="46.770968" lon="23.540538">
   <ele>455.7</ele>
   <time>2021-08-17T11:10:35Z</time>
  </trkpt>
  <trkpt lat="46.771015" lon="23.540618">
   <ele>455.3</ele>
   <time>2021-08-17T11:10:37Z</time>
  </trkpt>
  <trkpt lat="46.771067" lon="23.540739">
   <ele>454.8</ele>
   <time>2021-08-17T11:10:40Z</time>
  </trkpt>
  <trkpt lat="46.771118" lon="23.540824">
   <ele>454.3</ele>
   <time>2021-08-17T11:10:42Z</time>
  </trkpt>
  <trkpt lat="46.771137" lon="23.540870">
   <ele>454.1</ele>
   <time>2021-08-17T11:10:43Z</time>
  </trkpt>
  <trkpt lat="46.771234" lon="23.541093">
   <ele>452.8</ele>
   <time>2021-08-17T11:10:48Z</time>
  </trkpt>
  <trkpt lat="46.771305" lon="23.541235">
   <ele>450.5</ele>
   <time>2021-08-17T11:10:51Z</time>
  </trkpt>
  <trkpt lat="46.771350" lon="23.541318">
   <ele>450.5</ele>
   <time>2021-08-17T11:10:53Z</time>
  </trkpt>
  <trkpt lat="46.771378" lon="23.541355">
   <ele>450.5</ele>
   <time>2021-08-17T11:10:54Z</time>
  </trkpt>
  <trkpt lat="46.771432" lon="23.541439">
   <ele>450.6</ele>
   <time>2021-08-17T11:10:56Z</time>
  </trkpt>
  <trkpt lat="46.771467" lon="23.541484">
   <ele>450.7</ele>
   <time>2021-08-17T11:10:57Z</time>
  </trkpt>
  <trkpt lat="46.771541" lon="23.541603">
   <ele>451</ele>
   <time>2021-08-17T11:11:00Z</time>
  </trkpt>
  <trkpt lat="46.771633" lon="23.541752">
   <ele>451.3</ele>
   <time>2021-08-17T11:11:04Z</time>
  </trkpt>
  <trkpt lat="46.771687" lon="23.541861">
   <ele>451.6</ele>
   <time>2021-08-17T11:11:07Z</time>
  </trkpt>
  <trkpt lat="46.771726" lon="23.541984">
   <ele>451.9</ele>
   <time>2021-08-17T11:11:10Z</time>
  </trkpt>
  <trkpt lat="46.771764" lon="23.542088">
   <ele>452.2</ele>
   <time>2021-08-17T11:11:13Z</time>
  </trkpt>
  <trkpt lat="46.771770" lon="23.542120">
   <ele>452.3</ele>
   <time>2021-08-17T11:11:14Z</time>
  </trkpt>
  <trkpt lat="46.771819" lon="23.542180">
   <ele>452.5</ele>
   <time>2021-08-17T11:11:18Z</time>
  </trkpt>
  <trkpt lat="46.771832" lon="23.542190">
   <ele>452.5</ele>
   <time>2021-08-17T11:11:19Z</time>
  </trkpt>
  <trkpt lat="46.771840" lon="23.542206">
   <ele>452.6</ele>
   <time>2021-08-17T11:11:21Z</time>
  </trkpt>
  <trkpt lat="46.771854" lon="23.542214">
   <ele>452.6</ele>
   <time>2021-08-17T11:11:24Z</time>
  </trkpt>
  <trkpt lat="46.771864" lon="23.542215">
   <ele>452.7</ele>
   <time>2021-08-17T11:11:26Z</time>
  </trkpt>
  <trkpt lat="46.772020" lon="23.542423">
   <ele>453.5</ele>
   <time>2021-08-17T11:12:00Z</time>
  </trkpt>
  <trkpt lat="46.772026" lon="23.542443">
   <ele>453.5</ele>
   <time>2021-08-17T11:12:01Z</time>
  </trkpt>
  <trkpt lat="46.772028" lon="23.542467">
   <ele>453.6</ele>
   <time>2021-08-17T11:12:02Z</time>
  </trkpt>
  <trkpt lat="46.772059" lon="23.542605">
   <ele>454</ele>
   <time>2021-08-17T11:12:08Z</time>
  </trkpt>
  <trkpt lat="46.772064" lon="23.542633">
   <ele>454.1</ele>
   <time>2021-08-17T11:12:09Z</time>
  </trkpt>
  <trkpt lat="46.772096" lon="23.542815">
   <ele>454.7</ele>
   <time>2021-08-17T11:12:15Z</time>
  </trkpt>
  <trkpt lat="46.772126" lon="23.542897">
   <ele>455</ele>
   <time>2021-08-17T11:12:18Z</time>
  </trkpt>
  <trkpt lat="46.772139" lon="23.542917">
   <ele>455.1</ele>
   <time>2021-08-17T11:12:19Z</time>
  </trkpt>
  <trkpt lat="46.772157" lon="23.542972">
   <ele>455.3</ele>
   <time>2021-08-17T11:12:21Z</time>
  </trkpt>
  <trkpt lat="46.772184" lon="23.543109">
   <ele>455.7</ele>
   <time>2021-08-17T11:12:25Z</time>
  </trkpt>
  <trkpt lat="46.772192" lon="23.543174">
   <ele>455.9</ele>
   <time>2021-08-17T11:12:27Z</time>
  </trkpt>
  <trkpt lat="46.772202" lon="23.543232">
   <ele>456</ele>
   <time>2021-08-17T11:12:29Z</time>
  </trkpt>
  <trkpt lat="46.772217" lon="23.543322">
   <ele>456.3</ele>
   <time>2021-08-17T11:12:32Z</time>
  </trkpt>
  <trkpt lat="46.772229" lon="23.543385">
   <ele>456.5</ele>
   <time>2021-08-17T11:12:34Z</time>
  </trkpt>
  <trkpt lat="46.772226" lon="23.543518">
   <ele>456.8</ele>
   <time>2021-08-17T11:12:38Z</time>
  </trkpt>
  <trkpt lat="46.772223" lon="23.543596">
   <ele>457</ele>
   <time>2021-08-17T11:12:41Z</time>
  </trkpt>
  <trkpt lat="46.772224" lon="23.543778">
   <ele>457.5</ele>
   <time>2021-08-17T11:12:47Z</time>
  </trkpt>
  <trkpt lat="46.772226" lon="23.543807">
   <ele>457.5</ele>
   <time>2021-08-17T11:12:48Z</time>
  </trkpt>
  <trkpt lat="46.772248" lon="23.543927">
   <ele>457.8</ele>
   <time>2021-08-17T11:12:53Z</time>
  </trkpt>
  <trkpt lat="46.772260" lon="23.544091">
   <ele>458.1</ele>
   <time>2021-08-17T11:12:59Z</time>
  </trkpt>
  <trkpt lat="46.772258" lon="23.544114">
   <ele>458.1</ele>
   <time>2021-08-17T11:13:00Z</time>
  </trkpt>
  <trkpt lat="46.772261" lon="23.544178">
   <ele>458.2</ele>
   <time>2021-08-17T11:13:03Z</time>
  </trkpt>
  <trkpt lat="46.772287" lon="23.544252">
   <ele>458.3</ele>
   <time>2021-08-17T11:13:06Z</time>
  </trkpt>
  <trkpt lat="46.772306" lon="23.544406">
   <ele>458.5</ele>
   <time>2021-08-17T11:13:12Z</time>
  </trkpt>
  <trkpt lat="46.772310" lon="23.544483">
   <ele>458.6</ele>
   <time>2021-08-17T11:13:15Z</time>
  </trkpt>
  <trkpt lat="46.772342" lon="23.544559">
   <ele>458.6</ele>
   <time>2021-08-17T11:13:18Z</time>
  </trkpt>
  <trkpt lat="46.772417" lon="23.544700">
   <ele>458.8</ele>
   <time>2021-08-17T11:13:24Z</time>
  </trkpt>
  <trkpt lat="46.772434" lon="23.544761">
   <ele>458.9</ele>
   <time>2021-08-17T11:13:26Z</time>
  </trkpt>
  <trkpt lat="46.772482" lon="23.544948">
   <ele>459.1</ele>
   <time>2021-08-17T11:13:32Z</time>
  </trkpt>
  <trkpt lat="46.772491" lon="23.544982">
   <ele>459.1</ele>
   <time>2021-08-17T11:13:33Z</time>
  </trkpt>
  <trkpt lat="46.772542" lon="23.545168">
   <ele>459.4</ele>
   <time>2021-08-17T11:13:39Z</time>
  </trkpt>
  <trkpt lat="46.772555" lon="23.545218">
   <ele>459.4</ele>
   <time>2021-08-17T11:13:41Z</time>
  </trkpt>
  <trkpt lat="46.772564" lon="23.545300">
   <ele>459.6</ele>
   <time>2021-08-17T11:13:44Z</time>
  </trkpt>
  <trkpt lat="46.772573" lon="23.545326">
   <ele>459.6</ele>
   <time>2021-08-17T11:13:45Z</time>
  </trkpt>
  <trkpt lat="46.772625" lon="23.545480">
   <ele>460</ele>
   <time>2021-08-17T11:13:51Z</time>
  </trkpt>
  <trkpt lat="46.772631" lon="23.545505">
   <ele>460</ele>
   <time>2021-08-17T11:13:52Z</time>
  </trkpt>
  <trkpt lat="46.772694" lon="23.545653">
   <ele>460.4</ele>
   <time>2021-08-17T11:13:58Z</time>
  </trkpt>
  <trkpt lat="46.772708" lon="23.545681">
   <ele>460.5</ele>
   <time>2021-08-17T11:13:59Z</time>
  </trkpt>
  <trkpt lat="46.772720" lon="23.545709">
   <ele>460.5</ele>
   <time>2021-08-17T11:14:00Z</time>
  </trkpt>
  <trkpt lat="46.772749" lon="23.545765">
   <ele>460.7</ele>
   <time>2021-08-17T11:14:02Z</time>
  </trkpt>
  <trkpt lat="46.772783" lon="23.545848">
   <ele>460.9</ele>
   <time>2021-08-17T11:14:05Z</time>
  </trkpt>
  <trkpt lat="46.772821" lon="23.545929">
   <ele>461.1</ele>
   <time>2021-08-17T11:14:08Z</time>
  </trkpt>
  <trkpt lat="46.772864" lon="23.546041">
   <ele>461.4</ele>
   <time>2021-08-17T11:14:12Z</time>
  </trkpt>
  <trkpt lat="46.772945" lon="23.546202">
   <ele>461.8</ele>
   <time>2021-08-17T11:14:18Z</time>
  </trkpt>
  <trkpt lat="46.772959" lon="23.546227">
   <ele>461.8</ele>
   <time>2021-08-17T11:14:19Z</time>
  </trkpt>
  <trkpt lat="46.772988" lon="23.546274">
   <ele>461.9</ele>
   <time>2021-08-17T11:14:21Z</time>
  </trkpt>
  <trkpt lat="46.773082" lon="23.546423">
   <ele>462.1</ele>
   <time>2021-08-17T11:14:27Z</time>
  </trkpt>
  <trkpt lat="46.773120" lon="23.546474">
   <ele>462.1</ele>
   <time>2021-08-17T11:14:29Z</time>
  </trkpt>
  <trkpt lat="46.773179" lon="23.546612">
   <ele>462</ele>
   <time>2021-08-17T11:14:34Z</time>
  </trkpt>
  <trkpt lat="46.773233" lon="23.546699">
   <ele>461.8</ele>
   <time>2021-08-17T11:14:38Z</time>
  </trkpt>
  <trkpt lat="46.773245" lon="23.546720">
   <ele>461.7</ele>
   <time>2021-08-17T11:14:39Z</time>
  </trkpt>
  <trkpt lat="46.773293" lon="23.546808">
   <ele>461.4</ele>
   <time>2021-08-17T11:14:43Z</time>
  </trkpt>
  <trkpt lat="46.773412" lon="23.546958">
   <ele>460.3</ele>
   <time>2021-08-17T11:14:48Z</time>
  </trkpt>
  <trkpt lat="46.773516" lon="23.547109">
   <ele>458.9</ele>
   <time>2021-08-17T11:14:52Z</time>
  </trkpt>
  <trkpt lat="46.773555" lon="23.547179">
   <ele>458.4</ele>
   <time>2021-08-17T11:14:54Z</time>
  </trkpt>
  <trkpt lat="46.773572" lon="23.547216">
   <ele>458.1</ele>
   <time>2021-08-17T11:14:55Z</time>
  </trkpt>
  <trkpt lat="46.773617" lon="23.547349">
   <ele>457.2</ele>
   <time>2021-08-17T11:14:58Z</time>
  </trkpt>
  <trkpt lat="46.773651" lon="23.547450">
   <ele>456.6</ele>
   <time>2021-08-17T11:15:00Z</time>
  </trkpt>
  <trkpt lat="46.773689" lon="23.547535">
   <ele>456.2</ele>
   <time>2021-08-17T11:15:02Z</time>
  </trkpt>
  <trkpt lat="46.773736" lon="23.547652">
   <ele>455.6</ele>
   <time>2021-08-17T11:15:05Z</time>
  </trkpt>
  <trkpt lat="46.773752" lon="23.547690">
   <ele>455.5</ele>
   <time>2021-08-17T11:15:06Z</time>
  </trkpt>
  <trkpt lat="46.773818" lon="23.547807">
   <ele>455.2</ele>
   <time>2021-08-17T11:15:09Z</time>
  </trkpt>
  <trkpt lat="46.773865" lon="23.547953">
   <ele>455</ele>
   <time>2021-08-17T11:15:13Z</time>
  </trkpt>
  <trkpt lat="46.773962" lon="23.548158">
   <ele>455</ele>
   <time>2021-08-17T11:15:19Z</time>
  </trkpt>
  <trkpt lat="46.773976" lon="23.548193">
   <ele>455.1</ele>
   <time>2021-08-17T11:15:20Z</time>
  </trkpt>
  <trkpt lat="46.773990" lon="23.548228">
   <ele>455.1</ele>
   <time>2021-08-17T11:15:21Z</time>
  </trkpt>
  <trkpt lat="46.774042" lon="23.548400">
   <ele>455.2</ele>
   <time>2021-08-17T11:15:26Z</time>
  </trkpt>
  <trkpt lat="46.774072" lon="23.548462">
   <ele>455.2</ele>
   <time>2021-08-17T11:15:28Z</time>
  </trkpt>
  <trkpt lat="46.774149" lon="23.548599">
   <ele>455.1</ele>
   <time>2021-08-17T11:15:33Z</time>
  </trkpt>
  <trkpt lat="46.774185" lon="23.548660">
   <ele>455</ele>
   <time>2021-08-17T11:15:35Z</time>
  </trkpt>
  <trkpt lat="46.774227" lon="23.548720">
   <ele>454.9</ele>
   <time>2021-08-17T11:15:37Z</time>
  </trkpt>
  <trkpt lat="46.774277" lon="23.548787">
   <ele>454.7</ele>
   <time>2021-08-17T11:15:40Z</time>
  </trkpt>
  <trkpt lat="46.774373" lon="23.548947">
   <ele>454.2</ele>
   <time>2021-08-17T11:15:46Z</time>
  </trkpt>
  <trkpt lat="46.774404" lon="23.549012">
   <ele>454</ele>
   <time>2021-08-17T11:15:48Z</time>
  </trkpt>
  <trkpt lat="46.774484" lon="23.549180">
   <ele>453.5</ele>
   <time>2021-08-17T11:15:53Z</time>
  </trkpt>
  <trkpt lat="46.774615" lon="23.549377">
   <ele>452.8</ele>
   <time>2021-08-17T11:15:59Z</time>
  </trkpt>
  <trkpt lat="46.774647" lon="23.549411">
   <ele>452.7</ele>
   <time>2021-08-17T11:16:00Z</time>
  </trkpt>
  <trkpt lat="46.774675" lon="23.549443">
   <ele>452.6</ele>
   <time>2021-08-17T11:16:01Z</time>
  </trkpt>
  <trkpt lat="46.774719" lon="23.549510">
   <ele>452.4</ele>
   <time>2021-08-17T11:16:03Z</time>
  </trkpt>
  <trkpt lat="46.774787" lon="23.549643">
   <ele>452.5</ele>
   <time>2021-08-17T11:16:07Z</time>
  </trkpt>
  <trkpt lat="46.774856" lon="23.549763">
   <ele>453</ele>
   <time>2021-08-17T11:16:11Z</time>
  </trkpt>
  <trkpt lat="46.774875" lon="23.549785">
   <ele>453.1</ele>
   <time>2021-08-17T11:16:12Z</time>
  </trkpt>
  <trkpt lat="46.774891" lon="23.549806">
   <ele>453.2</ele>
   <time>2021-08-17T11:16:13Z</time>
  </trkpt>
  <trkpt lat="46.774930" lon="23.549901">
   <ele>453.6</ele>
   <time>2021-08-17T11:16:18Z</time>
  </trkpt>
  <trkpt lat="46.774940" lon="23.549950">
   <ele>453.8</ele>
   <time>2021-08-17T11:16:20Z</time>
  </trkpt>
  <trkpt lat="46.774986" lon="23.550084">
   <ele>454.1</ele>
   <time>2021-08-17T11:16:25Z</time>
  </trkpt>
  <trkpt lat="46.775004" lon="23.550137">
   <ele>454.1</ele>
   <time>2021-08-17T11:16:27Z</time>
  </trkpt>
  <trkpt lat="46.775068" lon="23.550367">
   <ele>453.5</ele>
   <time>2021-08-17T11:16:33Z</time>
  </trkpt>
  <trkpt lat="46.775090" lon="23.550586">
   <ele>452.5</ele>
   <time>2021-08-17T11:16:38Z</time>
  </trkpt>
  <trkpt lat="46.775091" lon="23.550635">
   <ele>452.3</ele>
   <time>2021-08-17T11:16:39Z</time>
  </trkpt>
  <trkpt lat="46.775087" lon="23.550801">
   <ele>451.5</ele>
   <time>2021-08-17T11:16:42Z</time>
  </trkpt>
  <trkpt lat="46.775079" lon="23.550994">
   <ele>450.5</ele>
   <time>2021-08-17T11:16:45Z</time>
  </trkpt>
  <trkpt lat="46.775081" lon="23.551064">
   <ele>450.1</ele>
   <time>2021-08-17T11:16:46Z</time>
  </trkpt>
  <trkpt lat="46.775082" lon="23.551279">
   <ele>449</ele>
   <time>2021-08-17T11:16:49Z</time>
  </trkpt>
  <trkpt lat="46.775102" lon="23.551490">
   <ele>447.9</ele>
   <time>2021-08-17T11:16:52Z</time>
  </trkpt>
  <trkpt lat="46.775110" lon="23.551561">
   <ele>447.6</ele>
   <time>2021-08-17T11:16:53Z</time>
  </trkpt>
  <trkpt lat="46.775109" lon="23.551633">
   <ele>447.4</ele>
   <time>2021-08-17T11:16:54Z</time>
  </trkpt>
  <trkpt lat="46.775118" lon="23.551765">
   <ele>447</ele>
   <time>2021-08-17T11:16:56Z</time>
  </trkpt>
  <trkpt lat="46.775132" lon="23.551822">
   <ele>446.9</ele>
   <time>2021-08-17T11:16:57Z</time>
  </trkpt>
  <trkpt lat="46.775149" lon="23.551875">
   <ele>446.8</ele>
   <time>2021-08-17T11:16:58Z</time>
  </trkpt>
  <trkpt lat="46.775174" lon="23.551965">
   <ele>446.6</ele>
   <time>2021-08-17T11:17:00Z</time>
  </trkpt>
  <trkpt lat="46.775188" lon="23.552010">
   <ele>446.6</ele>
   <time>2021-08-17T11:17:01Z</time>
  </trkpt>
  <trkpt lat="46.775213" lon="23.552133">
   <ele>446.5</ele>
   <time>2021-08-17T11:17:04Z</time>
  </trkpt>
  <trkpt lat="46.775250" lon="23.552328">
   <ele>445.9</ele>
   <time>2021-08-17T11:17:09Z</time>
  </trkpt>
  <trkpt lat="46.775302" lon="23.552568">
   <ele>444</ele>
   <time>2021-08-17T11:17:14Z</time>
  </trkpt>
  <trkpt lat="46.775312" lon="23.552705">
   <ele>442.7</ele>
   <time>2021-08-17T11:17:16Z</time>
  </trkpt>
  <trkpt lat="46.775318" lon="23.552782">
   <ele>442</ele>
   <time>2021-08-17T11:17:17Z</time>
  </trkpt>
  <trkpt lat="46.775322" lon="23.552868">
   <ele>441.2</ele>
   <time>2021-08-17T11:17:18Z</time>
  </trkpt>
  <trkpt lat="46.775327" lon="23.553045">
   <ele>439.8</ele>
   <time>2021-08-17T11:17:20Z</time>
  </trkpt>
  <trkpt lat="46.775341" lon="23.553197">
   <ele>438.9</ele>
   <time>2021-08-17T11:17:22Z</time>
  </trkpt>
  <trkpt lat="46.775368" lon="23.553516">
   <ele>437</ele>
   <time>2021-08-17T11:17:27Z</time>
  </trkpt>
  <trkpt lat="46.775375" lon="23.553577">
   <ele>436.5</ele>
   <time>2021-08-17T11:17:28Z</time>
  </trkpt>
  <trkpt lat="46.775375" lon="23.553648">
   <ele>436</ele>
   <time>2021-08-17T11:17:29Z</time>
  </trkpt>
  <trkpt lat="46.775368" lon="23.553852">
   <ele>434.5</ele>
   <time>2021-08-17T11:17:32Z</time>
  </trkpt>
  <trkpt lat="46.775356" lon="23.553988">
   <ele>433.5</ele>
   <time>2021-08-17T11:17:34Z</time>
  </trkpt>
  <trkpt lat="46.775349" lon="23.554055">
   <ele>432.9</ele>
   <time>2021-08-17T11:17:35Z</time>
  </trkpt>
  <trkpt lat="46.775349" lon="23.554117">
   <ele>432.4</ele>
   <time>2021-08-17T11:17:36Z</time>
  </trkpt>
  <trkpt lat="46.775345" lon="23.554247">
   <ele>431.2</ele>
   <time>2021-08-17T11:17:38Z</time>
  </trkpt>
  <trkpt lat="46.775345" lon="23.554318">
   <ele>430.6</ele>
   <time>2021-08-17T11:17:39Z</time>
  </trkpt>
  <trkpt lat="46.775349" lon="23.554392">
   <ele>430</ele>
   <time>2021-08-17T11:17:40Z</time>
  </trkpt>
  <trkpt lat="46.775360" lon="23.554465">
   <ele>429.3</ele>
   <time>2021-08-17T11:17:41Z</time>
  </trkpt>
  <trkpt lat="46.775371" lon="23.554537">
   <ele>428.7</ele>
   <time>2021-08-17T11:17:42Z</time>
  </trkpt>
  <trkpt lat="46.775403" lon="23.554699">
   <ele>427.2</ele>
   <time>2021-08-17T11:17:44Z</time>
  </trkpt>
  <trkpt lat="46.775447" lon="23.554889">
   <ele>425.5</ele>
   <time>2021-08-17T11:17:46Z</time>
  </trkpt>
  <trkpt lat="46.775463" lon="23.554990">
   <ele>424.8</ele>
   <time>2021-08-17T11:17:47Z</time>
  </trkpt>
  <trkpt lat="46.775492" lon="23.555182">
   <ele>424</ele>
   <time>2021-08-17T11:17:49Z</time>
  </trkpt>
  <trkpt lat="46.775523" lon="23.555449">
   <ele>423.6</ele>
   <time>2021-08-17T11:17:52Z</time>
  </trkpt>
  <trkpt lat="46.775533" lon="23.555527">
   <ele>423.6</ele>
   <time>2021-08-17T11:17:53Z</time>
  </trkpt>
  <trkpt lat="46.775545" lon="23.555738">
   <ele>423.7</ele>
   <time>2021-08-17T11:17:56Z</time>
  </trkpt>
  <trkpt lat="46.775543" lon="23.555846">
   <ele>423.7</ele>
   <time>2021-08-17T11:17:58Z</time>
  </trkpt>
  <trkpt lat="46.775512" lon="23.556135">
   <ele>423.1</ele>
   <time>2021-08-17T11:18:03Z</time>
  </trkpt>
  <trkpt lat="46.775493" lon="23.556251">
   <ele>422.7</ele>
   <time>2021-08-17T11:18:05Z</time>
  </trkpt>
  <trkpt lat="46.775464" lon="23.556454">
   <ele>421.5</ele>
   <time>2021-08-17T11:18:09Z</time>
  </trkpt>
  <trkpt lat="46.775436" lon="23.556585">
   <ele>420.6</ele>
   <time>2021-08-17T11:18:12Z</time>
  </trkpt>
  <trkpt lat="46.775419" lon="23.556639">
   <ele>420.1</ele>
   <time>2021-08-17T11:18:13Z</time>
  </trkpt>
  <trkpt lat="46.775368" lon="23.556809">
   <ele>418.8</ele>
   <time>2021-08-17T11:18:16Z</time>
  </trkpt>
  <trkpt lat="46.775350" lon="23.556874">
   <ele>418.3</ele>
   <time>2021-08-17T11:18:17Z</time>
  </trkpt>
  <trkpt lat="46.775317" lon="23.557154">
   <ele>416.8</ele>
   <time>2021-08-17T11:18:21Z</time>
  </trkpt>
  <trkpt lat="46.775322" lon="23.557226">
   <ele>416.4</ele>
   <time>2021-08-17T11:18:22Z</time>
  </trkpt>
  <trkpt lat="46.775318" lon="23.557299">
   <ele>416.1</ele>
   <time>2021-08-17T11:18:23Z</time>
  </trkpt>
  <trkpt lat="46.775318" lon="23.557555">
   <ele>414.9</ele>
   <time>2021-08-17T11:18:27Z</time>
  </trkpt>
  <trkpt lat="46.775321" lon="23.557623">
   <ele>414.5</ele>
   <time>2021-08-17T11:18:28Z</time>
  </trkpt>
  <trkpt lat="46.775327" lon="23.557766">
   <ele>413.7</ele>
   <time>2021-08-17T11:18:30Z</time>
  </trkpt>
  <trkpt lat="46.775339" lon="23.557908">
   <ele>412.9</ele>
   <time>2021-08-17T11:18:32Z</time>
  </trkpt>
  <trkpt lat="46.775351" lon="23.558008">
   <ele>412.3</ele>
   <time>2021-08-17T11:18:34Z</time>
  </trkpt>
  <trkpt lat="46.775356" lon="23.558083">
   <ele>412</ele>
   <time>2021-08-17T11:18:36Z</time>
  </trkpt>
  <trkpt lat="46.775382" lon="23.558196">
   <ele>411.4</ele>
   <time>2021-08-17T11:18:40Z</time>
  </trkpt>
  <trkpt lat="46.775384" lon="23.558212">
   <ele>411.3</ele>
   <time>2021-08-17T11:18:41Z</time>
  </trkpt>
  <trkpt lat="46.775389" lon="23.558329">
   <ele>410.9</ele>
   <time>2021-08-17T11:18:46Z</time>
  </trkpt>
  <trkpt lat="46.775387" lon="23.558379">
   <ele>410.7</ele>
   <time>2021-08-17T11:18:48Z</time>
  </trkpt>
  <trkpt lat="46.775386" lon="23.558449">
   <ele>410.5</ele>
   <time>2021-08-17T11:18:52Z</time>
  </trkpt>
  <trkpt lat="46.775387" lon="23.558451">
   <ele>410.5</ele>
   <time>2021-08-17T11:18:53Z</time>
  </trkpt>
  <trkpt lat="46.775396" lon="23.558448">
   <ele>410.5</ele>
   <time>2021-08-17T11:18:55Z</time>
  </trkpt>
  <trkpt lat="46.775398" lon="23.558449">
   <ele>410.4</ele>
   <time>2021-08-17T11:18:56Z</time>
  </trkpt>
  <trkpt lat="46.775434" lon="23.558629">
   <ele>409.9</ele>
   <time>2021-08-17T11:19:43Z</time>
  </trkpt>
  <trkpt lat="46.775443" lon="23.558667">
   <ele>409.8</ele>
   <time>2021-08-17T11:19:44Z</time>
  </trkpt>
  <trkpt lat="46.775482" lon="23.558800">
   <ele>409.4</ele>
   <time>2021-08-17T11:19:47Z</time>
  </trkpt>
  <trkpt lat="46.775533" lon="23.558942">
   <ele>409</ele>
   <time>2021-08-17T11:19:50Z</time>
  </trkpt>
  <trkpt lat="46.775642" lon="23.559151">
   <ele>408.4</ele>
   <time>2021-08-17T11:19:55Z</time>
  </trkpt>
  <trkpt lat="46.775685" lon="23.559212">
   <ele>408.3</ele>
   <time>2021-08-17T11:19:57Z</time>
  </trkpt>
  <trkpt lat="46.775822" lon="23.559354">
   <ele>407.8</ele>
   <time>2021-08-17T11:20:03Z</time>
  </trkpt>
  <trkpt lat="46.775846" lon="23.559362">
   <ele>407.8</ele>
   <time>2021-08-17T11:20:04Z</time>
  </trkpt>
  <trkpt lat="46.775870" lon="23.559357">
   <ele>407.3</ele>
   <time>2021-08-17T11:20:05Z</time>
  </trkpt>
  <trkpt lat="46.775943" lon="23.559279">
   <ele>405.9</ele>
   <time>2021-08-17T11:20:08Z</time>
  </trkpt>
  <trkpt lat="46.775960" lon="23.559242">
   <ele>405.9</ele>
   <time>2021-08-17T11:20:09Z</time>
  </trkpt>
  <trkpt lat="46.775981" lon="23.559178">
   <ele>405.2</ele>
   <time>2021-08-17T11:20:11Z</time>
  </trkpt>
  <trkpt lat="46.775990" lon="23.559148">
   <ele>405</ele>
   <time>2021-08-17T11:20:12Z</time>
  </trkpt>
  <trkpt lat="46.776006" lon="23.559083">
   <ele>404.4</ele>
   <time>2021-08-17T11:20:14Z</time>
  </trkpt>
  <trkpt lat="46.776020" lon="23.559010">
   <ele>404.2</ele>
   <time>2021-08-17T11:20:16Z</time>
  </trkpt>
  <trkpt lat="46.776034" lon="23.558929">
   <ele>403.4</ele>
   <time>2021-08-17T11:20:18Z</time>
  </trkpt>
  <trkpt lat="46.776039" lon="23.558884">
   <ele>403.3</ele>
   <time>2021-08-17T11:20:19Z</time>
  </trkpt>
  <trkpt lat="46.776051" lon="23.558710">
   <ele>402.9</ele>
   <time>2021-08-17T11:20:22Z</time>
  </trkpt>
  <trkpt lat="46.776062" lon="23.558647">
   <ele>402.2</ele>
   <time>2021-08-17T11:20:23Z</time>
  </trkpt>
  <trkpt lat="46.776078" lon="23.558585">
   <ele>402</ele>
   <time>2021-08-17T11:20:24Z</time>
  </trkpt>
  <trkpt lat="46.776143" lon="23.558370">
   <ele>399.4</ele>
   <time>2021-08-17T11:20:27Z</time>
  </trkpt>
  <trkpt lat="46.776168" lon="23.558287">
   <ele>399.1</ele>
   <time>2021-08-17T11:20:28Z</time>
  </trkpt>
  <trkpt lat="46.776188" lon="23.558200">
   <ele>398.2</ele>
   <time>2021-08-17T11:20:29Z</time>
  </trkpt>
  <trkpt lat="46.776217" lon="23.558019">
   <ele>397.6</ele>
   <time>2021-08-17T11:20:31Z</time>
  </trkpt>
  <trkpt lat="46.776237" lon="23.557940">
   <ele>397.2</ele>
   <time>2021-08-17T11:20:32Z</time>
  </trkpt>
  <trkpt lat="46.776263" lon="23.557870">
   <ele>396.6</ele>
   <time>2021-08-17T11:20:33Z</time>
  </trkpt>
  <trkpt lat="46.776319" lon="23.557756">
   <ele>395.4</ele>
   <time>2021-08-17T11:20:35Z</time>
  </trkpt>
  <trkpt lat="46.776352" lon="23.557714">
   <ele>394.8</ele>
   <time>2021-08-17T11:20:36Z</time>
  </trkpt>
  <trkpt lat="46.776386" lon="23.557677">
   <ele>394.1</ele>
   <time>2021-08-17T11:20:37Z</time>
  </trkpt>
  <trkpt lat="46.776425" lon="23.557642">
   <ele>393.5</ele>
   <time>2021-08-17T11:20:38Z</time>
  </trkpt>
  <trkpt lat="46.776520" lon="23.557596">
   <ele>391.7</ele>
   <time>2021-08-17T11:20:40Z</time>
  </trkpt>
  <trkpt lat="46.776571" lon="23.557587">
   <ele>390.7</ele>
   <time>2021-08-17T11:20:41Z</time>
  </trkpt>
  <trkpt lat="46.776663" lon="23.557586">
   <ele>389.2</ele>
   <time>2021-08-17T11:20:43Z</time>
  </trkpt>
  <trkpt lat="46.776703" lon="23.557592">
   <ele>388.1</ele>
   <time>2021-08-17T11:20:44Z</time>
  </trkpt>
  <trkpt lat="46.776736" lon="23.557599">
   <ele>387.6</ele>
   <time>2021-08-17T11:20:45Z</time>
  </trkpt>
  <trkpt lat="46.776765" lon="23.557600">
   <ele>387.2</ele>
   <time>2021-08-17T11:20:46Z</time>
  </trkpt>
  <trkpt lat="46.776793" lon="23.557594">
   <ele>386.8</ele>
   <time>2021-08-17T11:20:47Z</time>
  </trkpt>
  <trkpt lat="46.776911" lon="23.557528">
   <ele>385.4</ele>
   <time>2021-08-17T11:20:51Z</time>
  </trkpt>
  <trkpt lat="46.776941" lon="23.557505">
   <ele>385</ele>
   <time>2021-08-17T11:20:52Z</time>
  </trkpt>
  <trkpt lat="46.776994" lon="23.557454">
   <ele>384.3</ele>
   <time>2021-08-17T11:20:54Z</time>
  </trkpt>
  <trkpt lat="46.777046" lon="23.557399">
   <ele>384.3</ele>
   <time>2021-08-17T11:20:56Z</time>
  </trkpt>
  <trkpt lat="46.777073" lon="23.557327">
   <ele>384.3</ele>
   <time>2021-08-17T11:20:58Z</time>
  </trkpt>
  <trkpt lat="46.777054" lon="23.557204">
   <ele>384.3</ele>
   <time>2021-08-17T11:21:02Z</time>
  </trkpt>
  <trkpt lat="46.777066" lon="23.556980">
   <ele>384.1</ele>
   <time>2021-08-17T11:21:08Z</time>
  </trkpt>
  <trkpt lat="46.777068" lon="23.556937">
   <ele>384.1</ele>
   <time>2021-08-17T11:21:09Z</time>
  </trkpt>
  <trkpt lat="46.777081" lon="23.556653">
   <ele>383.6</ele>
   <time>2021-08-17T11:21:15Z</time>
  </trkpt>
  <trkpt lat="46.777087" lon="23.556549">
   <ele>383.3</ele>
   <time>2021-08-17T11:21:17Z</time>
  </trkpt>
  <trkpt lat="46.777086" lon="23.556273">
   <ele>382.8</ele>
   <time>2021-08-17T11:21:22Z</time>
  </trkpt>
  <trkpt lat="46.777086" lon="23.556217">
   <ele>382.7</ele>
   <time>2021-08-17T11:21:23Z</time>
  </trkpt>
  <trkpt lat="46.777093" lon="23.556050">
   <ele>382.6</ele>
   <time>2021-08-17T11:21:26Z</time>
  </trkpt>
  <trkpt lat="46.777090" lon="23.555941">
   <ele>382.6</ele>
   <time>2021-08-17T11:21:28Z</time>
  </trkpt>
  <trkpt lat="46.777096" lon="23.555788">
   <ele>382.7</ele>
   <time>2021-08-17T11:21:31Z</time>
  </trkpt>
  <trkpt lat="46.777120" lon="23.555515">
   <ele>383.1</ele>
   <time>2021-08-17T11:21:37Z</time>
  </trkpt>
  <trkpt lat="46.777134" lon="23.555390">
   <ele>383.4</ele>
   <time>2021-08-17T11:21:40Z</time>
  </trkpt>
  <trkpt lat="46.777177" lon="23.555181">
   <ele>384</ele>
   <time>2021-08-17T11:21:46Z</time>
  </trkpt>
  <trkpt lat="46.777180" lon="23.555174">
   <ele>384.1</ele>
   <time>2021-08-17T11:21:47Z</time>
  </trkpt>
  <trkpt lat="46.777185" lon="23.555174">
   <ele>384.1</ele>
   <time>2021-08-17T11:21:49Z</time>
  </trkpt>
 </trkseg>
</trk>
 <extensions>
 </extensions>
</gpx>
